<?xml version="1.0" encoding="UTF-8" standalone="no" ?>
<gpx xmlns="http://www.topografix.com/GPX/1/1" xmlns:xsi="http://www.w3.org/2001/XMLSchema-instance" xsi:schemaLocation="http://www.topografix.com/GPX/1/1 http://www.topografix.com/GPX/1/1/gpx.xsd" version="1.1" creator="VisuGPX - https://www.visugpx.com">
  <metadata>
    <name>Barrage des Bouillouses,Puig Carlit,Carlit de Baix, stèle Fornés,étang des Dugu</name>
    <desc><![CDATA[TOPO sur notre site:
https://randonnees-pyrenees-orientales.e-monsite.com/pages/pyrenees-orientales/capcir/barrage-des-bouillouses-puig-carlit-carlit-de-baix-stele-fornes-etang-des-dugues.html
]]></desc>
  </metadata>
  <trk>
    <name><![CDATA[8009873-Barrage des Bouillouses,Puig Carlit,Carlit de Baix]]></name>
    <extensions>
      <line xmlns="http://www.topografix.com/GPX/gpx_style/0/2">
        <color>0000FF</color>
        <width>4</width>
      </line>
    </extensions>
    <trkseg>
      <trkpt lat="42.55872" lon="2.00318">
        <ele>2004</ele>
        <time>2022-07-01T14:18:00Z</time>
      </trkpt>
      <trkpt lat="42.5591" lon="2.00312">
        <ele>2009</ele>
        <time>2022-07-01T14:18:51Z</time>
      </trkpt>
      <trkpt lat="42.5591" lon="2.00308">
        <ele>2009</ele>
        <time>2022-07-01T14:18:55Z</time>
      </trkpt>
      <trkpt lat="42.55908" lon="2.00309">
        <ele>2009</ele>
        <time>2022-07-01T14:18:58Z</time>
      </trkpt>
      <trkpt lat="42.55911" lon="2.00306">
        <ele>2009</ele>
        <time>2022-07-01T14:19:03Z</time>
      </trkpt>
      <trkpt lat="42.55917" lon="2.00306">
        <ele>2010</ele>
        <time>2022-07-01T14:19:11Z</time>
      </trkpt>
      <trkpt lat="42.55958" lon="2.00358">
        <ele>2013</ele>
        <time>2022-07-01T14:20:26Z</time>
      </trkpt>
      <trkpt lat="42.55986" lon="2.00376">
        <ele>2015</ele>
        <time>2022-07-01T14:21:07Z</time>
      </trkpt>
      <trkpt lat="42.56001" lon="2.00371">
        <ele>2015</ele>
        <time>2022-07-01T14:21:28Z</time>
      </trkpt>
      <trkpt lat="42.5602" lon="2.0034">
        <ele>2016</ele>
        <time>2022-07-01T14:22:07Z</time>
      </trkpt>
      <trkpt lat="42.56038" lon="2.00332">
        <ele>2017</ele>
        <time>2022-07-01T14:22:33Z</time>
      </trkpt>
      <trkpt lat="42.56044" lon="2.00322">
        <ele>2016</ele>
        <time>2022-07-01T14:22:45Z</time>
      </trkpt>
      <trkpt lat="42.56035" lon="2.00258">
        <ele>2012</ele>
        <time>2022-07-01T14:23:49Z</time>
      </trkpt>
      <trkpt lat="42.56025" lon="2.00222">
        <ele>2009</ele>
        <time>2022-07-01T14:24:27Z</time>
      </trkpt>
      <trkpt lat="42.56011" lon="2.00145">
        <ele>2006</ele>
        <time>2022-07-01T14:25:45Z</time>
      </trkpt>
      <trkpt lat="42.55974" lon="1.99908">
        <ele>2016</ele>
        <time>2022-07-01T14:29:43Z</time>
      </trkpt>
      <trkpt lat="42.55972" lon="1.99906">
        <ele>2017</ele>
        <time>2022-07-01T14:29:46Z</time>
      </trkpt>
      <trkpt lat="42.55972" lon="1.99925">
        <ele>2015</ele>
        <time>2022-07-01T14:30:05Z</time>
      </trkpt>
      <trkpt lat="42.5597" lon="1.9993">
        <ele>2015</ele>
        <time>2022-07-01T14:30:11Z</time>
      </trkpt>
      <trkpt lat="42.55953" lon="1.99945">
        <ele>2013</ele>
        <time>2022-07-01T14:30:38Z</time>
      </trkpt>
      <trkpt lat="42.55956" lon="1.99945">
        <ele>2013</ele>
        <time>2022-07-01T14:30:42Z</time>
      </trkpt>
      <trkpt lat="42.55952" lon="1.99937">
        <ele>2014</ele>
        <time>2022-07-01T14:30:51Z</time>
      </trkpt>
      <trkpt lat="42.55944" lon="1.99937">
        <ele>2014</ele>
        <time>2022-07-01T14:31:02Z</time>
      </trkpt>
      <trkpt lat="42.5597" lon="1.99975">
        <ele>2011</ele>
        <time>2022-07-01T14:31:53Z</time>
      </trkpt>
      <trkpt lat="42.55956" lon="1.99966">
        <ele>2012</ele>
        <time>2022-07-01T14:32:14Z</time>
      </trkpt>
      <trkpt lat="42.5595" lon="1.9997">
        <ele>2011</ele>
        <time>2022-07-01T14:32:23Z</time>
      </trkpt>
      <trkpt lat="42.5595" lon="1.99964">
        <ele>2012</ele>
        <time>2022-07-01T14:32:28Z</time>
      </trkpt>
      <trkpt lat="42.55957" lon="1.99949">
        <ele>2013</ele>
        <time>2022-07-01T14:32:46Z</time>
      </trkpt>
      <trkpt lat="42.55962" lon="1.99948">
        <ele>2013</ele>
        <time>2022-07-01T14:32:53Z</time>
      </trkpt>
      <trkpt lat="42.55966" lon="1.99944">
        <ele>2014</ele>
        <time>2022-07-01T14:32:59Z</time>
      </trkpt>
      <trkpt lat="42.55971" lon="1.99928">
        <ele>2015</ele>
        <time>2022-07-01T14:33:16Z</time>
      </trkpt>
      <trkpt lat="42.55969" lon="1.99886">
        <ele>2017</ele>
        <time>2022-07-01T14:33:58Z</time>
      </trkpt>
      <trkpt lat="42.55973" lon="1.99874">
        <ele>2018</ele>
        <time>2022-07-01T14:34:11Z</time>
      </trkpt>
      <trkpt lat="42.55973" lon="1.99862">
        <ele>2019</ele>
        <time>2022-07-01T14:34:22Z</time>
      </trkpt>
      <trkpt lat="42.55982" lon="1.99821">
        <ele>2021</ele>
        <time>2022-07-01T14:35:05Z</time>
      </trkpt>
      <trkpt lat="42.55982" lon="1.99802">
        <ele>2023</ele>
        <time>2022-07-01T14:35:23Z</time>
      </trkpt>
      <trkpt lat="42.55988" lon="1.99771">
        <ele>2026</ele>
        <time>2022-07-01T14:35:55Z</time>
      </trkpt>
      <trkpt lat="42.55984" lon="1.99755">
        <ele>2027</ele>
        <time>2022-07-01T14:36:11Z</time>
      </trkpt>
      <trkpt lat="42.5598" lon="1.99717">
        <ele>2030</ele>
        <time>2022-07-01T14:36:49Z</time>
      </trkpt>
      <trkpt lat="42.55971" lon="1.99692">
        <ele>2030</ele>
        <time>2022-07-01T14:37:16Z</time>
      </trkpt>
      <trkpt lat="42.55977" lon="1.99666">
        <ele>2033</ele>
        <time>2022-07-01T14:37:43Z</time>
      </trkpt>
      <trkpt lat="42.55987" lon="1.9964">
        <ele>2036</ele>
        <time>2022-07-01T14:38:12Z</time>
      </trkpt>
      <trkpt lat="42.55993" lon="1.99632">
        <ele>2037</ele>
        <time>2022-07-01T14:38:23Z</time>
      </trkpt>
      <trkpt lat="42.55996" lon="1.99606">
        <ele>2038</ele>
        <time>2022-07-01T14:38:49Z</time>
      </trkpt>
      <trkpt lat="42.56005" lon="1.99582">
        <ele>2040</ele>
        <time>2022-07-01T14:39:16Z</time>
      </trkpt>
      <trkpt lat="42.56014" lon="1.99541">
        <ele>2047</ele>
        <time>2022-07-01T14:39:58Z</time>
      </trkpt>
      <trkpt lat="42.56029" lon="1.99509">
        <ele>2055</ele>
        <time>2022-07-01T14:40:35Z</time>
      </trkpt>
      <trkpt lat="42.56031" lon="1.99494">
        <ele>2058</ele>
        <time>2022-07-01T14:40:50Z</time>
      </trkpt>
      <trkpt lat="42.56031" lon="1.99427">
        <ele>2070</ele>
        <time>2022-07-01T14:41:56Z</time>
      </trkpt>
      <trkpt lat="42.56016" lon="1.99414">
        <ele>2066</ele>
        <time>2022-07-01T14:42:20Z</time>
      </trkpt>
      <trkpt lat="42.56007" lon="1.99394">
        <ele>2066</ele>
        <time>2022-07-01T14:42:43Z</time>
      </trkpt>
      <trkpt lat="42.56006" lon="1.99378">
        <ele>2068</ele>
        <time>2022-07-01T14:42:58Z</time>
      </trkpt>
      <trkpt lat="42.56008" lon="1.9937">
        <ele>2070</ele>
        <time>2022-07-01T14:43:07Z</time>
      </trkpt>
      <trkpt lat="42.56002" lon="1.99341">
        <ele>2072</ele>
        <time>2022-07-01T14:43:36Z</time>
      </trkpt>
      <trkpt lat="42.56" lon="1.993">
        <ele>2073</ele>
        <time>2022-07-01T14:44:17Z</time>
      </trkpt>
      <trkpt lat="42.55997" lon="1.99292">
        <ele>2072</ele>
        <time>2022-07-01T14:44:25Z</time>
      </trkpt>
      <trkpt lat="42.55998" lon="1.99282">
        <ele>2073</ele>
        <time>2022-07-01T14:44:35Z</time>
      </trkpt>
      <trkpt lat="42.55994" lon="1.99263">
        <ele>2072</ele>
        <time>2022-07-01T14:44:55Z</time>
      </trkpt>
      <trkpt lat="42.55994" lon="1.99254">
        <ele>2072</ele>
        <time>2022-07-01T14:45:04Z</time>
      </trkpt>
      <trkpt lat="42.56008" lon="1.99204">
        <ele>2078</ele>
        <time>2022-07-01T14:45:56Z</time>
      </trkpt>
      <trkpt lat="42.56014" lon="1.9915">
        <ele>2082</ele>
        <time>2022-07-01T14:46:50Z</time>
      </trkpt>
      <trkpt lat="42.56025" lon="1.99101">
        <ele>2088</ele>
        <time>2022-07-01T14:47:40Z</time>
      </trkpt>
      <trkpt lat="42.56023" lon="1.9909">
        <ele>2088</ele>
        <time>2022-07-01T14:47:51Z</time>
      </trkpt>
      <trkpt lat="42.56031" lon="1.99063">
        <ele>2094</ele>
        <time>2022-07-01T14:48:20Z</time>
      </trkpt>
      <trkpt lat="42.56039" lon="1.9905">
        <ele>2096</ele>
        <time>2022-07-01T14:48:37Z</time>
      </trkpt>
      <trkpt lat="42.56053" lon="1.99035">
        <ele>2097</ele>
        <time>2022-07-01T14:49:00Z</time>
      </trkpt>
      <trkpt lat="42.56066" lon="1.99034">
        <ele>2096</ele>
        <time>2022-07-01T14:49:18Z</time>
      </trkpt>
      <trkpt lat="42.56077" lon="1.99026">
        <ele>2095</ele>
        <time>2022-07-01T14:49:34Z</time>
      </trkpt>
      <trkpt lat="42.56091" lon="1.98999">
        <ele>2093</ele>
        <time>2022-07-01T14:50:07Z</time>
      </trkpt>
      <trkpt lat="42.561" lon="1.98961">
        <ele>2101</ele>
        <time>2022-07-01T14:50:46Z</time>
      </trkpt>
      <trkpt lat="42.56114" lon="1.98941">
        <ele>2103</ele>
        <time>2022-07-01T14:51:13Z</time>
      </trkpt>
      <trkpt lat="42.56117" lon="1.98929">
        <ele>2105</ele>
        <time>2022-07-01T14:51:26Z</time>
      </trkpt>
      <trkpt lat="42.56148" lon="1.98893">
        <ele>2106</ele>
        <time>2022-07-01T14:52:20Z</time>
      </trkpt>
      <trkpt lat="42.56153" lon="1.98872">
        <ele>2108</ele>
        <time>2022-07-01T14:52:42Z</time>
      </trkpt>
      <trkpt lat="42.56166" lon="1.98852">
        <ele>2108</ele>
        <time>2022-07-01T14:53:08Z</time>
      </trkpt>
      <trkpt lat="42.56174" lon="1.98842">
        <ele>2109</ele>
        <time>2022-07-01T14:53:23Z</time>
      </trkpt>
      <trkpt lat="42.5618" lon="1.98839">
        <ele>2109</ele>
        <time>2022-07-01T14:53:31Z</time>
      </trkpt>
      <trkpt lat="42.56196" lon="1.98815">
        <ele>2113</ele>
        <time>2022-07-01T14:54:03Z</time>
      </trkpt>
      <trkpt lat="42.56214" lon="1.98808">
        <ele>2113</ele>
        <time>2022-07-01T14:54:28Z</time>
      </trkpt>
      <trkpt lat="42.56229" lon="1.98796">
        <ele>2115</ele>
        <time>2022-07-01T14:54:51Z</time>
      </trkpt>
      <trkpt lat="42.5625" lon="1.98789">
        <ele>2115</ele>
        <time>2022-07-01T14:55:20Z</time>
      </trkpt>
      <trkpt lat="42.56259" lon="1.98769">
        <ele>2118</ele>
        <time>2022-07-01T14:55:43Z</time>
      </trkpt>
      <trkpt lat="42.56258" lon="1.98761">
        <ele>2119</ele>
        <time>2022-07-01T14:55:51Z</time>
      </trkpt>
      <trkpt lat="42.56266" lon="1.98737">
        <ele>2123</ele>
        <time>2022-07-01T14:56:17Z</time>
      </trkpt>
      <trkpt lat="42.56275" lon="1.98734">
        <ele>2123</ele>
        <time>2022-07-01T14:56:29Z</time>
      </trkpt>
      <trkpt lat="42.56284" lon="1.98724">
        <ele>2125</ele>
        <time>2022-07-01T14:56:45Z</time>
      </trkpt>
      <trkpt lat="42.56303" lon="1.98716">
        <ele>2125</ele>
        <time>2022-07-01T14:57:11Z</time>
      </trkpt>
      <trkpt lat="42.56312" lon="1.98709">
        <ele>2125</ele>
        <time>2022-07-01T14:57:25Z</time>
      </trkpt>
      <trkpt lat="42.56315" lon="1.98701">
        <ele>2126</ele>
        <time>2022-07-01T14:57:34Z</time>
      </trkpt>
      <trkpt lat="42.56336" lon="1.98672">
        <ele>2129</ele>
        <time>2022-07-01T14:58:14Z</time>
      </trkpt>
      <trkpt lat="42.56338" lon="1.98662">
        <ele>2131</ele>
        <time>2022-07-01T14:58:24Z</time>
      </trkpt>
      <trkpt lat="42.56337" lon="1.9865">
        <ele>2133</ele>
        <time>2022-07-01T14:58:36Z</time>
      </trkpt>
      <trkpt lat="42.56342" lon="1.98639">
        <ele>2135</ele>
        <time>2022-07-01T14:58:49Z</time>
      </trkpt>
      <trkpt lat="42.56366" lon="1.98619">
        <ele>2137</ele>
        <time>2022-07-01T14:59:26Z</time>
      </trkpt>
      <trkpt lat="42.56375" lon="1.98602">
        <ele>2139</ele>
        <time>2022-07-01T14:59:47Z</time>
      </trkpt>
      <trkpt lat="42.56407" lon="1.9858">
        <ele>2140</ele>
        <time>2022-07-01T15:00:35Z</time>
      </trkpt>
      <trkpt lat="42.56427" lon="1.98563">
        <ele>2141</ele>
        <time>2022-07-01T15:01:06Z</time>
      </trkpt>
      <trkpt lat="42.56436" lon="1.98552">
        <ele>2143</ele>
        <time>2022-07-01T15:01:22Z</time>
      </trkpt>
      <trkpt lat="42.56439" lon="1.98496">
        <ele>2148</ele>
        <time>2022-07-01T15:02:18Z</time>
      </trkpt>
      <trkpt lat="42.5643" lon="1.98474">
        <ele>2149</ele>
        <time>2022-07-01T15:02:42Z</time>
      </trkpt>
      <trkpt lat="42.56424" lon="1.98449">
        <ele>2151</ele>
        <time>2022-07-01T15:03:08Z</time>
      </trkpt>
      <trkpt lat="42.56421" lon="1.9841">
        <ele>2153</ele>
        <time>2022-07-01T15:03:47Z</time>
      </trkpt>
      <trkpt lat="42.56424" lon="1.98368">
        <ele>2154</ele>
        <time>2022-07-01T15:04:28Z</time>
      </trkpt>
      <trkpt lat="42.5643" lon="1.98346">
        <ele>2154</ele>
        <time>2022-07-01T15:04:51Z</time>
      </trkpt>
      <trkpt lat="42.56449" lon="1.98318">
        <ele>2156</ele>
        <time>2022-07-01T15:05:29Z</time>
      </trkpt>
      <trkpt lat="42.56456" lon="1.98296">
        <ele>2160</ele>
        <time>2022-07-01T15:05:52Z</time>
      </trkpt>
      <trkpt lat="42.56501" lon="1.98248">
        <ele>2164</ele>
        <time>2022-07-01T15:07:09Z</time>
      </trkpt>
      <trkpt lat="42.56521" lon="1.98236">
        <ele>2164</ele>
        <time>2022-07-01T15:07:38Z</time>
      </trkpt>
      <trkpt lat="42.56528" lon="1.98227">
        <ele>2165</ele>
        <time>2022-07-01T15:07:51Z</time>
      </trkpt>
      <trkpt lat="42.56541" lon="1.98199">
        <ele>2168</ele>
        <time>2022-07-01T15:08:23Z</time>
      </trkpt>
      <trkpt lat="42.56541" lon="1.98172">
        <ele>2172</ele>
        <time>2022-07-01T15:08:50Z</time>
      </trkpt>
      <trkpt lat="42.5653" lon="1.98151">
        <ele>2173</ele>
        <time>2022-07-01T15:09:15Z</time>
      </trkpt>
      <trkpt lat="42.56527" lon="1.98122">
        <ele>2174</ele>
        <time>2022-07-01T15:09:44Z</time>
      </trkpt>
      <trkpt lat="42.56514" lon="1.98105">
        <ele>2174</ele>
        <time>2022-07-01T15:10:08Z</time>
      </trkpt>
      <trkpt lat="42.56513" lon="1.98097">
        <ele>2174</ele>
        <time>2022-07-01T15:10:16Z</time>
      </trkpt>
      <trkpt lat="42.56501" lon="1.98079">
        <ele>2174</ele>
        <time>2022-07-01T15:10:40Z</time>
      </trkpt>
      <trkpt lat="42.56499" lon="1.98067">
        <ele>2174</ele>
        <time>2022-07-01T15:10:52Z</time>
      </trkpt>
      <trkpt lat="42.56501" lon="1.98038">
        <ele>2173</ele>
        <time>2022-07-01T15:11:20Z</time>
      </trkpt>
      <trkpt lat="42.56496" lon="1.98025">
        <ele>2174</ele>
        <time>2022-07-01T15:11:35Z</time>
      </trkpt>
      <trkpt lat="42.56494" lon="1.97997">
        <ele>2173</ele>
        <time>2022-07-01T15:12:03Z</time>
      </trkpt>
      <trkpt lat="42.56489" lon="1.97974">
        <ele>2173</ele>
        <time>2022-07-01T15:12:26Z</time>
      </trkpt>
      <trkpt lat="42.56482" lon="1.97964">
        <ele>2173</ele>
        <time>2022-07-01T15:12:40Z</time>
      </trkpt>
      <trkpt lat="42.56473" lon="1.97958">
        <ele>2173</ele>
        <time>2022-07-01T15:12:53Z</time>
      </trkpt>
      <trkpt lat="42.5647" lon="1.97945">
        <ele>2173</ele>
        <time>2022-07-01T15:13:06Z</time>
      </trkpt>
      <trkpt lat="42.56458" lon="1.97922">
        <ele>2173</ele>
        <time>2022-07-01T15:13:34Z</time>
      </trkpt>
      <trkpt lat="42.56476" lon="1.9785">
        <ele>2169</ele>
        <time>2022-07-01T15:14:49Z</time>
      </trkpt>
      <trkpt lat="42.56473" lon="1.97834">
        <ele>2168</ele>
        <time>2022-07-01T15:15:05Z</time>
      </trkpt>
      <trkpt lat="42.56459" lon="1.97816">
        <ele>2168</ele>
        <time>2022-07-01T15:15:31Z</time>
      </trkpt>
      <trkpt lat="42.56457" lon="1.97809">
        <ele>2168</ele>
        <time>2022-07-01T15:15:38Z</time>
      </trkpt>
      <trkpt lat="42.56454" lon="1.97786">
        <ele>2168</ele>
        <time>2022-07-01T15:16:01Z</time>
      </trkpt>
      <trkpt lat="42.56456" lon="1.97756">
        <ele>2167</ele>
        <time>2022-07-01T15:16:31Z</time>
      </trkpt>
      <trkpt lat="42.56446" lon="1.9773">
        <ele>2167</ele>
        <time>2022-07-01T15:17:00Z</time>
      </trkpt>
      <trkpt lat="42.56447" lon="1.97713">
        <ele>2167</ele>
        <time>2022-07-01T15:17:16Z</time>
      </trkpt>
      <trkpt lat="42.56453" lon="1.97706">
        <ele>2168</ele>
        <time>2022-07-01T15:17:27Z</time>
      </trkpt>
      <trkpt lat="42.56457" lon="1.97692">
        <ele>2169</ele>
        <time>2022-07-01T15:17:42Z</time>
      </trkpt>
      <trkpt lat="42.56462" lon="1.97664">
        <ele>2170</ele>
        <time>2022-07-01T15:18:10Z</time>
      </trkpt>
      <trkpt lat="42.5646" lon="1.97658">
        <ele>2169</ele>
        <time>2022-07-01T15:18:16Z</time>
      </trkpt>
      <trkpt lat="42.5647" lon="1.97642">
        <ele>2170</ele>
        <time>2022-07-01T15:18:37Z</time>
      </trkpt>
      <trkpt lat="42.56477" lon="1.97637">
        <ele>2171</ele>
        <time>2022-07-01T15:18:48Z</time>
      </trkpt>
      <trkpt lat="42.56477" lon="1.97631">
        <ele>2171</ele>
        <time>2022-07-01T15:18:54Z</time>
      </trkpt>
      <trkpt lat="42.56484" lon="1.97616">
        <ele>2171</ele>
        <time>2022-07-01T15:19:11Z</time>
      </trkpt>
      <trkpt lat="42.56488" lon="1.97582">
        <ele>2172</ele>
        <time>2022-07-01T15:19:45Z</time>
      </trkpt>
      <trkpt lat="42.56499" lon="1.97569">
        <ele>2172</ele>
        <time>2022-07-01T15:20:04Z</time>
      </trkpt>
      <trkpt lat="42.56511" lon="1.97543">
        <ele>2172</ele>
        <time>2022-07-01T15:20:34Z</time>
      </trkpt>
      <trkpt lat="42.56523" lon="1.97533">
        <ele>2173</ele>
        <time>2022-07-01T15:20:53Z</time>
      </trkpt>
      <trkpt lat="42.56534" lon="1.97514">
        <ele>2173</ele>
        <time>2022-07-01T15:21:17Z</time>
      </trkpt>
      <trkpt lat="42.5653" lon="1.9749">
        <ele>2174</ele>
        <time>2022-07-01T15:21:41Z</time>
      </trkpt>
      <trkpt lat="42.56526" lon="1.97481">
        <ele>2175</ele>
        <time>2022-07-01T15:21:51Z</time>
      </trkpt>
      <trkpt lat="42.56516" lon="1.97472">
        <ele>2176</ele>
        <time>2022-07-01T15:22:08Z</time>
      </trkpt>
      <trkpt lat="42.56512" lon="1.97464">
        <ele>2177</ele>
        <time>2022-07-01T15:22:17Z</time>
      </trkpt>
      <trkpt lat="42.56514" lon="1.97448">
        <ele>2180</ele>
        <time>2022-07-01T15:22:33Z</time>
      </trkpt>
      <trkpt lat="42.56527" lon="1.97432">
        <ele>2182</ele>
        <time>2022-07-01T15:22:56Z</time>
      </trkpt>
      <trkpt lat="42.56565" lon="1.97418">
        <ele>2183</ele>
        <time>2022-07-01T15:23:49Z</time>
      </trkpt>
      <trkpt lat="42.56591" lon="1.97404">
        <ele>2184</ele>
        <time>2022-07-01T15:24:26Z</time>
      </trkpt>
      <trkpt lat="42.56598" lon="1.97396">
        <ele>2185</ele>
        <time>2022-07-01T15:24:38Z</time>
      </trkpt>
      <trkpt lat="42.56633" lon="1.97374">
        <ele>2188</ele>
        <time>2022-07-01T15:25:30Z</time>
      </trkpt>
      <trkpt lat="42.56718" lon="1.97332">
        <ele>2191</ele>
        <time>2022-07-01T15:27:31Z</time>
      </trkpt>
      <trkpt lat="42.56725" lon="1.97324">
        <ele>2192</ele>
        <time>2022-07-01T15:27:43Z</time>
      </trkpt>
      <trkpt lat="42.5673" lon="1.97322">
        <ele>2192</ele>
        <time>2022-07-01T15:27:50Z</time>
      </trkpt>
      <trkpt lat="42.56742" lon="1.97303">
        <ele>2195</ele>
        <time>2022-07-01T15:28:14Z</time>
      </trkpt>
      <trkpt lat="42.56777" lon="1.97273">
        <ele>2200</ele>
        <time>2022-07-01T15:29:10Z</time>
      </trkpt>
      <trkpt lat="42.56804" lon="1.97244">
        <ele>2203</ele>
        <time>2022-07-01T15:29:56Z</time>
      </trkpt>
      <trkpt lat="42.56809" lon="1.97242">
        <ele>2204</ele>
        <time>2022-07-01T15:30:03Z</time>
      </trkpt>
      <trkpt lat="42.56813" lon="1.9723">
        <ele>2205</ele>
        <time>2022-07-01T15:30:15Z</time>
      </trkpt>
      <trkpt lat="42.56819" lon="1.97223">
        <ele>2206</ele>
        <time>2022-07-01T15:30:26Z</time>
      </trkpt>
      <trkpt lat="42.56826" lon="1.97219">
        <ele>2207</ele>
        <time>2022-07-01T15:30:36Z</time>
      </trkpt>
      <trkpt lat="42.56848" lon="1.97198">
        <ele>2211</ele>
        <time>2022-07-01T15:31:12Z</time>
      </trkpt>
      <trkpt lat="42.56868" lon="1.9719">
        <ele>2214</ele>
        <time>2022-07-01T15:31:40Z</time>
      </trkpt>
      <trkpt lat="42.56878" lon="1.97183">
        <ele>2216</ele>
        <time>2022-07-01T15:31:55Z</time>
      </trkpt>
      <trkpt lat="42.56887" lon="1.97171">
        <ele>2218</ele>
        <time>2022-07-01T15:32:12Z</time>
      </trkpt>
      <trkpt lat="42.56902" lon="1.97164">
        <ele>2220</ele>
        <time>2022-07-01T15:32:33Z</time>
      </trkpt>
      <trkpt lat="42.56911" lon="1.97153">
        <ele>2222</ele>
        <time>2022-07-01T15:32:49Z</time>
      </trkpt>
      <trkpt lat="42.56925" lon="1.97143">
        <ele>2224</ele>
        <time>2022-07-01T15:33:10Z</time>
      </trkpt>
      <trkpt lat="42.56932" lon="1.97133">
        <ele>2225</ele>
        <time>2022-07-01T15:33:24Z</time>
      </trkpt>
      <trkpt lat="42.5694" lon="1.97131">
        <ele>2226</ele>
        <time>2022-07-01T15:33:35Z</time>
      </trkpt>
      <trkpt lat="42.56942" lon="1.97126">
        <ele>2226</ele>
        <time>2022-07-01T15:33:40Z</time>
      </trkpt>
      <trkpt lat="42.56956" lon="1.97122">
        <ele>2228</ele>
        <time>2022-07-01T15:33:59Z</time>
      </trkpt>
      <trkpt lat="42.56998" lon="1.97101">
        <ele>2233</ele>
        <time>2022-07-01T15:34:59Z</time>
      </trkpt>
      <trkpt lat="42.57038" lon="1.97088">
        <ele>2235</ele>
        <time>2022-07-01T15:35:54Z</time>
      </trkpt>
      <trkpt lat="42.57037" lon="1.97084">
        <ele>2235</ele>
        <time>2022-07-01T15:35:58Z</time>
      </trkpt>
      <trkpt lat="42.57038" lon="1.97086">
        <ele>2235</ele>
        <time>2022-07-01T15:36:00Z</time>
      </trkpt>
      <trkpt lat="42.57077" lon="1.97079">
        <ele>2237</ele>
        <time>2022-07-01T15:36:53Z</time>
      </trkpt>
      <trkpt lat="42.57124" lon="1.97057">
        <ele>2238</ele>
        <time>2022-07-01T15:37:59Z</time>
      </trkpt>
      <trkpt lat="42.57142" lon="1.97045">
        <ele>2239</ele>
        <time>2022-07-01T15:38:26Z</time>
      </trkpt>
      <trkpt lat="42.57163" lon="1.97025">
        <ele>2241</ele>
        <time>2022-07-01T15:39:00Z</time>
      </trkpt>
      <trkpt lat="42.57188" lon="1.96994">
        <ele>2239</ele>
        <time>2022-07-01T15:39:45Z</time>
      </trkpt>
      <trkpt lat="42.57199" lon="1.96984">
        <ele>2237</ele>
        <time>2022-07-01T15:40:03Z</time>
      </trkpt>
      <trkpt lat="42.57209" lon="1.96969">
        <ele>2235</ele>
        <time>2022-07-01T15:40:23Z</time>
      </trkpt>
      <trkpt lat="42.57223" lon="1.96959">
        <ele>2233</ele>
        <time>2022-07-01T15:40:44Z</time>
      </trkpt>
      <trkpt lat="42.5724" lon="1.96939">
        <ele>2231</ele>
        <time>2022-07-01T15:41:14Z</time>
      </trkpt>
      <trkpt lat="42.57244" lon="1.96937">
        <ele>2231</ele>
        <time>2022-07-01T15:41:20Z</time>
      </trkpt>
      <trkpt lat="42.57266" lon="1.96905">
        <ele>2229</ele>
        <time>2022-07-01T15:42:03Z</time>
      </trkpt>
      <trkpt lat="42.57275" lon="1.96898">
        <ele>2229</ele>
        <time>2022-07-01T15:42:17Z</time>
      </trkpt>
      <trkpt lat="42.57296" lon="1.96891">
        <ele>2230</ele>
        <time>2022-07-01T15:42:45Z</time>
      </trkpt>
      <trkpt lat="42.57306" lon="1.96868">
        <ele>2229</ele>
        <time>2022-07-01T15:43:12Z</time>
      </trkpt>
      <trkpt lat="42.57309" lon="1.96842">
        <ele>2228</ele>
        <time>2022-07-01T15:43:38Z</time>
      </trkpt>
      <trkpt lat="42.57308" lon="1.96831">
        <ele>2227</ele>
        <time>2022-07-01T15:43:48Z</time>
      </trkpt>
      <trkpt lat="42.57318" lon="1.96786">
        <ele>2231</ele>
        <time>2022-07-01T15:44:35Z</time>
      </trkpt>
      <trkpt lat="42.57322" lon="1.96735">
        <ele>2235</ele>
        <time>2022-07-01T15:45:25Z</time>
      </trkpt>
      <trkpt lat="42.57316" lon="1.967">
        <ele>2238</ele>
        <time>2022-07-01T15:46:00Z</time>
      </trkpt>
      <trkpt lat="42.57306" lon="1.96669">
        <ele>2240</ele>
        <time>2022-07-01T15:46:34Z</time>
      </trkpt>
      <trkpt lat="42.57294" lon="1.96655">
        <ele>2242</ele>
        <time>2022-07-01T15:46:55Z</time>
      </trkpt>
      <trkpt lat="42.57286" lon="1.96641">
        <ele>2243</ele>
        <time>2022-07-01T15:47:12Z</time>
      </trkpt>
      <trkpt lat="42.57279" lon="1.96634">
        <ele>2244</ele>
        <time>2022-07-01T15:47:24Z</time>
      </trkpt>
      <trkpt lat="42.5727" lon="1.9663">
        <ele>2243</ele>
        <time>2022-07-01T15:47:36Z</time>
      </trkpt>
      <trkpt lat="42.57266" lon="1.96623">
        <ele>2244</ele>
        <time>2022-07-01T15:47:45Z</time>
      </trkpt>
      <trkpt lat="42.57274" lon="1.96558">
        <ele>2255</ele>
        <time>2022-07-01T15:48:50Z</time>
      </trkpt>
      <trkpt lat="42.5726" lon="1.96535">
        <ele>2257</ele>
        <time>2022-07-01T15:49:19Z</time>
      </trkpt>
      <trkpt lat="42.57255" lon="1.9652">
        <ele>2258</ele>
        <time>2022-07-01T15:49:35Z</time>
      </trkpt>
      <trkpt lat="42.57254" lon="1.96474">
        <ele>2266</ele>
        <time>2022-07-01T15:50:21Z</time>
      </trkpt>
      <trkpt lat="42.57236" lon="1.96393">
        <ele>2274</ele>
        <time>2022-07-01T15:51:44Z</time>
      </trkpt>
      <trkpt lat="42.57235" lon="1.96349">
        <ele>2280</ele>
        <time>2022-07-01T15:52:27Z</time>
      </trkpt>
      <trkpt lat="42.57238" lon="1.96332">
        <ele>2283</ele>
        <time>2022-07-01T15:52:44Z</time>
      </trkpt>
      <trkpt lat="42.57216" lon="1.96283">
        <ele>2284</ele>
        <time>2022-07-01T15:53:41Z</time>
      </trkpt>
      <trkpt lat="42.57216" lon="1.96265">
        <ele>2285</ele>
        <time>2022-07-01T15:53:58Z</time>
      </trkpt>
      <trkpt lat="42.57219" lon="1.96251">
        <ele>2287</ele>
        <time>2022-07-01T15:54:13Z</time>
      </trkpt>
      <trkpt lat="42.57213" lon="1.9624">
        <ele>2287</ele>
        <time>2022-07-01T15:54:26Z</time>
      </trkpt>
      <trkpt lat="42.57209" lon="1.96214">
        <ele>2290</ele>
        <time>2022-07-01T15:54:52Z</time>
      </trkpt>
      <trkpt lat="42.57204" lon="1.96201">
        <ele>2290</ele>
        <time>2022-07-01T15:55:07Z</time>
      </trkpt>
      <trkpt lat="42.57205" lon="1.96168">
        <ele>2294</ele>
        <time>2022-07-01T15:55:39Z</time>
      </trkpt>
      <trkpt lat="42.5721" lon="1.96136">
        <ele>2300</ele>
        <time>2022-07-01T15:56:11Z</time>
      </trkpt>
      <trkpt lat="42.57218" lon="1.96116">
        <ele>2303</ele>
        <time>2022-07-01T15:56:34Z</time>
      </trkpt>
      <trkpt lat="42.57215" lon="1.96093">
        <ele>2306</ele>
        <time>2022-07-01T15:56:57Z</time>
      </trkpt>
      <trkpt lat="42.57217" lon="1.96082">
        <ele>2308</ele>
        <time>2022-07-01T15:57:08Z</time>
      </trkpt>
      <trkpt lat="42.57216" lon="1.96032">
        <ele>2314</ele>
        <time>2022-07-01T15:57:57Z</time>
      </trkpt>
      <trkpt lat="42.57232" lon="1.96002">
        <ele>2320</ele>
        <time>2022-07-01T15:58:33Z</time>
      </trkpt>
      <trkpt lat="42.57243" lon="1.9597">
        <ele>2329</ele>
        <time>2022-07-01T15:59:08Z</time>
      </trkpt>
      <trkpt lat="42.57251" lon="1.959">
        <ele>2343</ele>
        <time>2022-07-01T16:00:18Z</time>
      </trkpt>
      <trkpt lat="42.57249" lon="1.95892">
        <ele>2344</ele>
        <time>2022-07-01T16:00:26Z</time>
      </trkpt>
      <trkpt lat="42.57251" lon="1.95887">
        <ele>2344</ele>
        <time>2022-07-01T16:00:31Z</time>
      </trkpt>
      <trkpt lat="42.57253" lon="1.95829">
        <ele>2351</ele>
        <time>2022-07-01T16:01:28Z</time>
      </trkpt>
      <trkpt lat="42.57249" lon="1.95805">
        <ele>2351</ele>
        <time>2022-07-01T16:01:53Z</time>
      </trkpt>
      <trkpt lat="42.57244" lon="1.95795">
        <ele>2352</ele>
        <time>2022-07-01T16:02:05Z</time>
      </trkpt>
      <trkpt lat="42.57234" lon="1.95787">
        <ele>2352</ele>
        <time>2022-07-01T16:02:20Z</time>
      </trkpt>
      <trkpt lat="42.57224" lon="1.95772">
        <ele>2353</ele>
        <time>2022-07-01T16:02:40Z</time>
      </trkpt>
      <trkpt lat="42.57207" lon="1.95761">
        <ele>2354</ele>
        <time>2022-07-01T16:03:05Z</time>
      </trkpt>
      <trkpt lat="42.57205" lon="1.95753">
        <ele>2354</ele>
        <time>2022-07-01T16:03:13Z</time>
      </trkpt>
      <trkpt lat="42.57184" lon="1.95729">
        <ele>2355</ele>
        <time>2022-07-01T16:03:50Z</time>
      </trkpt>
      <trkpt lat="42.5718" lon="1.9571">
        <ele>2355</ele>
        <time>2022-07-01T16:04:09Z</time>
      </trkpt>
      <trkpt lat="42.57163" lon="1.95682">
        <ele>2357</ele>
        <time>2022-07-01T16:04:45Z</time>
      </trkpt>
      <trkpt lat="42.57158" lon="1.95661">
        <ele>2358</ele>
        <time>2022-07-01T16:05:07Z</time>
      </trkpt>
      <trkpt lat="42.57152" lon="1.95656">
        <ele>2360</ele>
        <time>2022-07-01T16:05:16Z</time>
      </trkpt>
      <trkpt lat="42.57143" lon="1.95629">
        <ele>2363</ele>
        <time>2022-07-01T16:05:45Z</time>
      </trkpt>
      <trkpt lat="42.57142" lon="1.95604">
        <ele>2364</ele>
        <time>2022-07-01T16:06:10Z</time>
      </trkpt>
      <trkpt lat="42.57158" lon="1.95515">
        <ele>2363</ele>
        <time>2022-07-01T16:07:40Z</time>
      </trkpt>
      <trkpt lat="42.57156" lon="1.95469">
        <ele>2366</ele>
        <time>2022-07-01T16:08:25Z</time>
      </trkpt>
      <trkpt lat="42.57159" lon="1.95457">
        <ele>2366</ele>
        <time>2022-07-01T16:08:38Z</time>
      </trkpt>
      <trkpt lat="42.57158" lon="1.95448">
        <ele>2367</ele>
        <time>2022-07-01T16:08:47Z</time>
      </trkpt>
      <trkpt lat="42.57163" lon="1.95407">
        <ele>2368</ele>
        <time>2022-07-01T16:09:27Z</time>
      </trkpt>
      <trkpt lat="42.57162" lon="1.95341">
        <ele>2364</ele>
        <time>2022-07-01T16:10:32Z</time>
      </trkpt>
      <trkpt lat="42.57158" lon="1.95319">
        <ele>2364</ele>
        <time>2022-07-01T16:10:55Z</time>
      </trkpt>
      <trkpt lat="42.57158" lon="1.95293">
        <ele>2364</ele>
        <time>2022-07-01T16:11:20Z</time>
      </trkpt>
      <trkpt lat="42.57161" lon="1.95271">
        <ele>2363</ele>
        <time>2022-07-01T16:11:42Z</time>
      </trkpt>
      <trkpt lat="42.57147" lon="1.95186">
        <ele>2366</ele>
        <time>2022-07-01T16:13:08Z</time>
      </trkpt>
      <trkpt lat="42.57154" lon="1.95158">
        <ele>2366</ele>
        <time>2022-07-01T16:13:37Z</time>
      </trkpt>
      <trkpt lat="42.57157" lon="1.95114">
        <ele>2370</ele>
        <time>2022-07-01T16:14:20Z</time>
      </trkpt>
      <trkpt lat="42.57156" lon="1.95099">
        <ele>2372</ele>
        <time>2022-07-01T16:14:35Z</time>
      </trkpt>
      <trkpt lat="42.57181" lon="1.94994">
        <ele>2386</ele>
        <time>2022-07-01T16:16:23Z</time>
      </trkpt>
      <trkpt lat="42.57178" lon="1.94974">
        <ele>2388</ele>
        <time>2022-07-01T16:16:43Z</time>
      </trkpt>
      <trkpt lat="42.57174" lon="1.94973">
        <ele>2390</ele>
        <time>2022-07-01T16:16:49Z</time>
      </trkpt>
      <trkpt lat="42.57172" lon="1.94961">
        <ele>2391</ele>
        <time>2022-07-01T16:17:01Z</time>
      </trkpt>
      <trkpt lat="42.57167" lon="1.94956">
        <ele>2393</ele>
        <time>2022-07-01T16:17:09Z</time>
      </trkpt>
      <trkpt lat="42.57167" lon="1.94916">
        <ele>2397</ele>
        <time>2022-07-01T16:17:49Z</time>
      </trkpt>
      <trkpt lat="42.57161" lon="1.94902">
        <ele>2400</ele>
        <time>2022-07-01T16:18:05Z</time>
      </trkpt>
      <trkpt lat="42.57153" lon="1.94898">
        <ele>2402</ele>
        <time>2022-07-01T16:18:16Z</time>
      </trkpt>
      <trkpt lat="42.57149" lon="1.94888">
        <ele>2404</ele>
        <time>2022-07-01T16:18:27Z</time>
      </trkpt>
      <trkpt lat="42.57129" lon="1.9487">
        <ele>2412</ele>
        <time>2022-07-01T16:18:59Z</time>
      </trkpt>
      <trkpt lat="42.57122" lon="1.94848">
        <ele>2416</ele>
        <time>2022-07-01T16:19:23Z</time>
      </trkpt>
      <trkpt lat="42.57116" lon="1.94793">
        <ele>2422</ele>
        <time>2022-07-01T16:20:17Z</time>
      </trkpt>
      <trkpt lat="42.57118" lon="1.94765">
        <ele>2423</ele>
        <time>2022-07-01T16:20:45Z</time>
      </trkpt>
      <trkpt lat="42.57122" lon="1.94768">
        <ele>2422</ele>
        <time>2022-07-01T16:20:51Z</time>
      </trkpt>
      <trkpt lat="42.57093" lon="1.9472">
        <ele>2429</ele>
        <time>2022-07-01T16:21:52Z</time>
      </trkpt>
      <trkpt lat="42.57082" lon="1.94684">
        <ele>2432</ele>
        <time>2022-07-01T16:22:30Z</time>
      </trkpt>
      <trkpt lat="42.5708" lon="1.94669">
        <ele>2433</ele>
        <time>2022-07-01T16:22:45Z</time>
      </trkpt>
      <trkpt lat="42.57083" lon="1.94641">
        <ele>2433</ele>
        <time>2022-07-01T16:23:13Z</time>
      </trkpt>
      <trkpt lat="42.57076" lon="1.94601">
        <ele>2441</ele>
        <time>2022-07-01T16:23:54Z</time>
      </trkpt>
      <trkpt lat="42.57077" lon="1.94574">
        <ele>2442</ele>
        <time>2022-07-01T16:24:20Z</time>
      </trkpt>
      <trkpt lat="42.57079" lon="1.94573">
        <ele>2441</ele>
        <time>2022-07-01T16:24:23Z</time>
      </trkpt>
      <trkpt lat="42.57078" lon="1.94559">
        <ele>2443</ele>
        <time>2022-07-01T16:24:37Z</time>
      </trkpt>
      <trkpt lat="42.57082" lon="1.94561">
        <ele>2440</ele>
        <time>2022-07-01T16:24:42Z</time>
      </trkpt>
      <trkpt lat="42.5708" lon="1.94562">
        <ele>2441</ele>
        <time>2022-07-01T16:24:45Z</time>
      </trkpt>
      <trkpt lat="42.57076" lon="1.94554">
        <ele>2444</ele>
        <time>2022-07-01T16:24:55Z</time>
      </trkpt>
      <trkpt lat="42.57053" lon="1.94531">
        <ele>2459</ele>
        <time>2022-07-01T16:25:33Z</time>
      </trkpt>
      <trkpt lat="42.57049" lon="1.9452">
        <ele>2462</ele>
        <time>2022-07-01T16:25:45Z</time>
      </trkpt>
      <trkpt lat="42.57048" lon="1.94501">
        <ele>2464</ele>
        <time>2022-07-01T16:26:04Z</time>
      </trkpt>
      <trkpt lat="42.57043" lon="1.94485">
        <ele>2468</ele>
        <time>2022-07-01T16:26:21Z</time>
      </trkpt>
      <trkpt lat="42.5703" lon="1.9446">
        <ele>2478</ele>
        <time>2022-07-01T16:26:51Z</time>
      </trkpt>
      <trkpt lat="42.57019" lon="1.94448">
        <ele>2485</ele>
        <time>2022-07-01T16:27:10Z</time>
      </trkpt>
      <trkpt lat="42.57012" lon="1.94428">
        <ele>2490</ele>
        <time>2022-07-01T16:27:31Z</time>
      </trkpt>
      <trkpt lat="42.57003" lon="1.94416">
        <ele>2496</ele>
        <time>2022-07-01T16:27:48Z</time>
      </trkpt>
      <trkpt lat="42.57" lon="1.94402">
        <ele>2499</ele>
        <time>2022-07-01T16:28:03Z</time>
      </trkpt>
      <trkpt lat="42.56998" lon="1.94403">
        <ele>2501</ele>
        <time>2022-07-01T16:28:05Z</time>
      </trkpt>
      <trkpt lat="42.56994" lon="1.94389">
        <ele>2506</ele>
        <time>2022-07-01T16:28:20Z</time>
      </trkpt>
      <trkpt lat="42.56994" lon="1.94363">
        <ele>2510</ele>
        <time>2022-07-01T16:28:46Z</time>
      </trkpt>
      <trkpt lat="42.57005" lon="1.94293">
        <ele>2527</ele>
        <time>2022-07-01T16:29:56Z</time>
      </trkpt>
      <trkpt lat="42.57013" lon="1.94278">
        <ele>2531</ele>
        <time>2022-07-01T16:30:14Z</time>
      </trkpt>
      <trkpt lat="42.5703" lon="1.94261">
        <ele>2531</ele>
        <time>2022-07-01T16:30:42Z</time>
      </trkpt>
      <trkpt lat="42.57025" lon="1.94257">
        <ele>2535</ele>
        <time>2022-07-01T16:30:50Z</time>
      </trkpt>
      <trkpt lat="42.57037" lon="1.94238">
        <ele>2539</ele>
        <time>2022-07-01T16:31:15Z</time>
      </trkpt>
      <trkpt lat="42.57036" lon="1.94236">
        <ele>2540</ele>
        <time>2022-07-01T16:31:17Z</time>
      </trkpt>
      <trkpt lat="42.57035" lon="1.9424">
        <ele>2539</ele>
        <time>2022-07-01T16:31:21Z</time>
      </trkpt>
      <trkpt lat="42.57037" lon="1.94237">
        <ele>2539</ele>
        <time>2022-07-01T16:31:25Z</time>
      </trkpt>
      <trkpt lat="42.57033" lon="1.94232">
        <ele>2544</ele>
        <time>2022-07-01T16:31:33Z</time>
      </trkpt>
      <trkpt lat="42.57033" lon="1.9421">
        <ele>2554</ele>
        <time>2022-07-01T16:31:54Z</time>
      </trkpt>
      <trkpt lat="42.5703" lon="1.94199">
        <ele>2561</ele>
        <time>2022-07-01T16:32:06Z</time>
      </trkpt>
      <trkpt lat="42.57035" lon="1.94186">
        <ele>2565</ele>
        <time>2022-07-01T16:32:20Z</time>
      </trkpt>
      <trkpt lat="42.57037" lon="1.94164">
        <ele>2575</ele>
        <time>2022-07-01T16:32:42Z</time>
      </trkpt>
      <trkpt lat="42.5705" lon="1.94137">
        <ele>2579</ele>
        <time>2022-07-01T16:33:14Z</time>
      </trkpt>
      <trkpt lat="42.57048" lon="1.94121">
        <ele>2585</ele>
        <time>2022-07-01T16:33:30Z</time>
      </trkpt>
      <trkpt lat="42.57053" lon="1.94098">
        <ele>2592</ele>
        <time>2022-07-01T16:33:53Z</time>
      </trkpt>
      <trkpt lat="42.5705" lon="1.94087">
        <ele>2596</ele>
        <time>2022-07-01T16:34:05Z</time>
      </trkpt>
      <trkpt lat="42.57054" lon="1.94079">
        <ele>2598</ele>
        <time>2022-07-01T16:34:14Z</time>
      </trkpt>
      <trkpt lat="42.57048" lon="1.94062">
        <ele>2603</ele>
        <time>2022-07-01T16:34:33Z</time>
      </trkpt>
      <trkpt lat="42.5705" lon="1.94061">
        <ele>2603</ele>
        <time>2022-07-01T16:34:36Z</time>
      </trkpt>
      <trkpt lat="42.5705" lon="1.94045">
        <ele>2608</ele>
        <time>2022-07-01T16:34:51Z</time>
      </trkpt>
      <trkpt lat="42.57047" lon="1.94034">
        <ele>2611</ele>
        <time>2022-07-01T16:35:03Z</time>
      </trkpt>
      <trkpt lat="42.57047" lon="1.94005">
        <ele>2618</ele>
        <time>2022-07-01T16:35:31Z</time>
      </trkpt>
      <trkpt lat="42.57045" lon="1.94006">
        <ele>2618</ele>
        <time>2022-07-01T16:35:34Z</time>
      </trkpt>
      <trkpt lat="42.57041" lon="1.94002">
        <ele>2619</ele>
        <time>2022-07-01T16:35:41Z</time>
      </trkpt>
      <trkpt lat="42.57044" lon="1.93999">
        <ele>2620</ele>
        <time>2022-07-01T16:35:46Z</time>
      </trkpt>
      <trkpt lat="42.57041" lon="1.94005">
        <ele>2618</ele>
        <time>2022-07-01T16:35:53Z</time>
      </trkpt>
      <trkpt lat="42.57034" lon="1.94003">
        <ele>2619</ele>
        <time>2022-07-01T16:36:02Z</time>
      </trkpt>
      <trkpt lat="42.57028" lon="1.93993">
        <ele>2620</ele>
        <time>2022-07-01T16:36:15Z</time>
      </trkpt>
      <trkpt lat="42.57025" lon="1.93999">
        <ele>2619</ele>
        <time>2022-07-01T16:36:22Z</time>
      </trkpt>
      <trkpt lat="42.57019" lon="1.93993">
        <ele>2620</ele>
        <time>2022-07-01T16:36:32Z</time>
      </trkpt>
      <trkpt lat="42.57017" lon="1.93984">
        <ele>2622</ele>
        <time>2022-07-01T16:36:41Z</time>
      </trkpt>
      <trkpt lat="42.57014" lon="1.93978">
        <ele>2623</ele>
        <time>2022-07-01T16:36:49Z</time>
      </trkpt>
      <trkpt lat="42.5701" lon="1.93976">
        <ele>2623</ele>
        <time>2022-07-01T16:36:54Z</time>
      </trkpt>
      <trkpt lat="42.57008" lon="1.9397">
        <ele>2624</ele>
        <time>2022-07-01T16:37:01Z</time>
      </trkpt>
      <trkpt lat="42.57007" lon="1.93961">
        <ele>2625</ele>
        <time>2022-07-01T16:37:10Z</time>
      </trkpt>
      <trkpt lat="42.57004" lon="1.93956">
        <ele>2626</ele>
        <time>2022-07-01T16:37:16Z</time>
      </trkpt>
      <trkpt lat="42.57005" lon="1.93947">
        <ele>2628</ele>
        <time>2022-07-01T16:37:25Z</time>
      </trkpt>
      <trkpt lat="42.57002" lon="1.93933">
        <ele>2630</ele>
        <time>2022-07-01T16:37:39Z</time>
      </trkpt>
      <trkpt lat="42.56998" lon="1.93929">
        <ele>2631</ele>
        <time>2022-07-01T16:37:46Z</time>
      </trkpt>
      <trkpt lat="42.56998" lon="1.93921">
        <ele>2632</ele>
        <time>2022-07-01T16:37:54Z</time>
      </trkpt>
      <trkpt lat="42.56992" lon="1.93913">
        <ele>2634</ele>
        <time>2022-07-01T16:38:05Z</time>
      </trkpt>
      <trkpt lat="42.56995" lon="1.93894">
        <ele>2639</ele>
        <time>2022-07-01T16:38:24Z</time>
      </trkpt>
      <trkpt lat="42.56998" lon="1.9389">
        <ele>2640</ele>
        <time>2022-07-01T16:38:30Z</time>
      </trkpt>
      <trkpt lat="42.56996" lon="1.93888">
        <ele>2640</ele>
        <time>2022-07-01T16:38:33Z</time>
      </trkpt>
      <trkpt lat="42.56999" lon="1.93885">
        <ele>2641</ele>
        <time>2022-07-01T16:38:38Z</time>
      </trkpt>
      <trkpt lat="42.5699" lon="1.93874">
        <ele>2644</ele>
        <time>2022-07-01T16:38:54Z</time>
      </trkpt>
      <trkpt lat="42.56995" lon="1.93857">
        <ele>2648</ele>
        <time>2022-07-01T16:39:12Z</time>
      </trkpt>
      <trkpt lat="42.56991" lon="1.93852">
        <ele>2649</ele>
        <time>2022-07-01T16:39:19Z</time>
      </trkpt>
      <trkpt lat="42.56993" lon="1.93842">
        <ele>2652</ele>
        <time>2022-07-01T16:39:30Z</time>
      </trkpt>
      <trkpt lat="42.56991" lon="1.93835">
        <ele>2654</ele>
        <time>2022-07-01T16:39:37Z</time>
      </trkpt>
      <trkpt lat="42.56986" lon="1.93831">
        <ele>2654</ele>
        <time>2022-07-01T16:39:45Z</time>
      </trkpt>
      <trkpt lat="42.56985" lon="1.93824">
        <ele>2655</ele>
        <time>2022-07-01T16:39:52Z</time>
      </trkpt>
      <trkpt lat="42.56987" lon="1.93821">
        <ele>2656</ele>
        <time>2022-07-01T16:39:56Z</time>
      </trkpt>
      <trkpt lat="42.56979" lon="1.93809">
        <ele>2658</ele>
        <time>2022-07-01T16:40:12Z</time>
      </trkpt>
      <trkpt lat="42.56983" lon="1.93796">
        <ele>2661</ele>
        <time>2022-07-01T16:40:25Z</time>
      </trkpt>
      <trkpt lat="42.56974" lon="1.93783">
        <ele>2662</ele>
        <time>2022-07-01T16:40:43Z</time>
      </trkpt>
      <trkpt lat="42.56978" lon="1.93781">
        <ele>2663</ele>
        <time>2022-07-01T16:40:49Z</time>
      </trkpt>
      <trkpt lat="42.56978" lon="1.93774">
        <ele>2665</ele>
        <time>2022-07-01T16:40:56Z</time>
      </trkpt>
      <trkpt lat="42.56969" lon="1.93757">
        <ele>2667</ele>
        <time>2022-07-01T16:41:16Z</time>
      </trkpt>
      <trkpt lat="42.56974" lon="1.93747">
        <ele>2670</ele>
        <time>2022-07-01T16:41:28Z</time>
      </trkpt>
      <trkpt lat="42.56968" lon="1.93734">
        <ele>2673</ele>
        <time>2022-07-01T16:41:43Z</time>
      </trkpt>
      <trkpt lat="42.5697" lon="1.93726">
        <ele>2677</ele>
        <time>2022-07-01T16:41:51Z</time>
      </trkpt>
      <trkpt lat="42.56963" lon="1.93722">
        <ele>2677</ele>
        <time>2022-07-01T16:42:02Z</time>
      </trkpt>
      <trkpt lat="42.56965" lon="1.93717">
        <ele>2679</ele>
        <time>2022-07-01T16:42:07Z</time>
      </trkpt>
      <trkpt lat="42.5696" lon="1.93711">
        <ele>2680</ele>
        <time>2022-07-01T16:42:16Z</time>
      </trkpt>
      <trkpt lat="42.56961" lon="1.93705">
        <ele>2682</ele>
        <time>2022-07-01T16:42:22Z</time>
      </trkpt>
      <trkpt lat="42.56966" lon="1.93699">
        <ele>2685</ele>
        <time>2022-07-01T16:42:31Z</time>
      </trkpt>
      <trkpt lat="42.56966" lon="1.93686">
        <ele>2689</ele>
        <time>2022-07-01T16:42:44Z</time>
      </trkpt>
      <trkpt lat="42.56962" lon="1.93679">
        <ele>2691</ele>
        <time>2022-07-01T16:42:52Z</time>
      </trkpt>
      <trkpt lat="42.56966" lon="1.93673">
        <ele>2694</ele>
        <time>2022-07-01T16:43:00Z</time>
      </trkpt>
      <trkpt lat="42.56962" lon="1.93665">
        <ele>2696</ele>
        <time>2022-07-01T16:43:10Z</time>
      </trkpt>
      <trkpt lat="42.56967" lon="1.93663">
        <ele>2698</ele>
        <time>2022-07-01T16:43:17Z</time>
      </trkpt>
      <trkpt lat="42.56963" lon="1.93657">
        <ele>2699</ele>
        <time>2022-07-01T16:43:25Z</time>
      </trkpt>
      <trkpt lat="42.56965" lon="1.93653">
        <ele>2701</ele>
        <time>2022-07-01T16:43:30Z</time>
      </trkpt>
      <trkpt lat="42.5696" lon="1.9364">
        <ele>2705</ele>
        <time>2022-07-01T16:43:44Z</time>
      </trkpt>
      <trkpt lat="42.56958" lon="1.93626">
        <ele>2709</ele>
        <time>2022-07-01T16:43:58Z</time>
      </trkpt>
      <trkpt lat="42.5696" lon="1.93623">
        <ele>2711</ele>
        <time>2022-07-01T16:44:02Z</time>
      </trkpt>
      <trkpt lat="42.56951" lon="1.936">
        <ele>2717</ele>
        <time>2022-07-01T16:44:28Z</time>
      </trkpt>
      <trkpt lat="42.56953" lon="1.936">
        <ele>2718</ele>
        <time>2022-07-01T16:44:30Z</time>
      </trkpt>
      <trkpt lat="42.56955" lon="1.9359">
        <ele>2722</ele>
        <time>2022-07-01T16:44:40Z</time>
      </trkpt>
      <trkpt lat="42.56951" lon="1.93571">
        <ele>2727</ele>
        <time>2022-07-01T16:45:00Z</time>
      </trkpt>
      <trkpt lat="42.56947" lon="1.93557">
        <ele>2731</ele>
        <time>2022-07-01T16:45:15Z</time>
      </trkpt>
      <trkpt lat="42.56941" lon="1.93548">
        <ele>2733</ele>
        <time>2022-07-01T16:45:27Z</time>
      </trkpt>
      <trkpt lat="42.56944" lon="1.93531">
        <ele>2738</ele>
        <time>2022-07-01T16:45:44Z</time>
      </trkpt>
      <trkpt lat="42.56939" lon="1.93512">
        <ele>2743</ele>
        <time>2022-07-01T16:46:04Z</time>
      </trkpt>
      <trkpt lat="42.56941" lon="1.93508">
        <ele>2745</ele>
        <time>2022-07-01T16:46:08Z</time>
      </trkpt>
      <trkpt lat="42.56946" lon="1.93508">
        <ele>2746</ele>
        <time>2022-07-01T16:46:15Z</time>
      </trkpt>
      <trkpt lat="42.56944" lon="1.93503">
        <ele>2747</ele>
        <time>2022-07-01T16:46:21Z</time>
      </trkpt>
      <trkpt lat="42.56947" lon="1.93504">
        <ele>2747</ele>
        <time>2022-07-01T16:46:25Z</time>
      </trkpt>
      <trkpt lat="42.56947" lon="1.93499">
        <ele>2749</ele>
        <time>2022-07-01T16:46:30Z</time>
      </trkpt>
      <trkpt lat="42.56943" lon="1.93497">
        <ele>2749</ele>
        <time>2022-07-01T16:46:35Z</time>
      </trkpt>
      <trkpt lat="42.56952" lon="1.93487">
        <ele>2755</ele>
        <time>2022-07-01T16:46:51Z</time>
      </trkpt>
      <trkpt lat="42.56947" lon="1.93477">
        <ele>2758</ele>
        <time>2022-07-01T16:47:03Z</time>
      </trkpt>
      <trkpt lat="42.56954" lon="1.93486">
        <ele>2756</ele>
        <time>2022-07-01T16:47:16Z</time>
      </trkpt>
      <trkpt lat="42.56958" lon="1.93474">
        <ele>2762</ele>
        <time>2022-07-01T16:47:28Z</time>
      </trkpt>
      <trkpt lat="42.5696" lon="1.93455">
        <ele>2770</ele>
        <time>2022-07-01T16:47:47Z</time>
      </trkpt>
      <trkpt lat="42.56984" lon="1.93408">
        <ele>2794</ele>
        <time>2022-07-01T16:48:44Z</time>
      </trkpt>
      <trkpt lat="42.57014" lon="1.93389">
        <ele>2807</ele>
        <time>2022-07-01T16:49:28Z</time>
      </trkpt>
      <trkpt lat="42.5702" lon="1.93374">
        <ele>2814</ele>
        <time>2022-07-01T16:49:45Z</time>
      </trkpt>
      <trkpt lat="42.57034" lon="1.93363">
        <ele>2819</ele>
        <time>2022-07-01T16:50:06Z</time>
      </trkpt>
      <trkpt lat="42.57038" lon="1.93363">
        <ele>2820</ele>
        <time>2022-07-01T16:50:11Z</time>
      </trkpt>
      <trkpt lat="42.57032" lon="1.93349">
        <ele>2826</ele>
        <time>2022-07-01T16:50:27Z</time>
      </trkpt>
      <trkpt lat="42.57032" lon="1.93343">
        <ele>2829</ele>
        <time>2022-07-01T16:50:33Z</time>
      </trkpt>
      <trkpt lat="42.57027" lon="1.93349">
        <ele>2826</ele>
        <time>2022-07-01T16:50:42Z</time>
      </trkpt>
      <trkpt lat="42.57022" lon="1.93346">
        <ele>2827</ele>
        <time>2022-07-01T16:50:49Z</time>
      </trkpt>
      <trkpt lat="42.57024" lon="1.93333">
        <ele>2834</ele>
        <time>2022-07-01T16:51:02Z</time>
      </trkpt>
      <trkpt lat="42.57021" lon="1.9333">
        <ele>2835</ele>
        <time>2022-07-01T16:51:07Z</time>
      </trkpt>
      <trkpt lat="42.5702" lon="1.93303">
        <ele>2849</ele>
        <time>2022-07-01T16:51:34Z</time>
      </trkpt>
      <trkpt lat="42.57026" lon="1.93301">
        <ele>2850</ele>
        <time>2022-07-01T16:51:42Z</time>
      </trkpt>
      <trkpt lat="42.57029" lon="1.93291">
        <ele>2854</ele>
        <time>2022-07-01T16:51:53Z</time>
      </trkpt>
      <trkpt lat="42.5703" lon="1.93275">
        <ele>2862</ele>
        <time>2022-07-01T16:52:09Z</time>
      </trkpt>
      <trkpt lat="42.57028" lon="1.93271">
        <ele>2864</ele>
        <time>2022-07-01T16:52:13Z</time>
      </trkpt>
      <trkpt lat="42.5703" lon="1.93268">
        <ele>2866</ele>
        <time>2022-07-01T16:52:17Z</time>
      </trkpt>
      <trkpt lat="42.57027" lon="1.93265">
        <ele>2867</ele>
        <time>2022-07-01T16:52:22Z</time>
      </trkpt>
      <trkpt lat="42.5703" lon="1.93262">
        <ele>2869</ele>
        <time>2022-07-01T16:52:27Z</time>
      </trkpt>
      <trkpt lat="42.57027" lon="1.93255">
        <ele>2872</ele>
        <time>2022-07-01T16:52:35Z</time>
      </trkpt>
      <trkpt lat="42.57034" lon="1.93248">
        <ele>2874</ele>
        <time>2022-07-01T16:52:47Z</time>
      </trkpt>
      <trkpt lat="42.57034" lon="1.93243">
        <ele>2874</ele>
        <time>2022-07-01T16:52:52Z</time>
      </trkpt>
      <trkpt lat="42.5704" lon="1.93233">
        <ele>2873</ele>
        <time>2022-07-01T16:53:04Z</time>
      </trkpt>
      <trkpt lat="42.57045" lon="1.9323">
        <ele>2873</ele>
        <time>2022-07-01T16:53:12Z</time>
      </trkpt>
      <trkpt lat="42.57046" lon="1.93222">
        <ele>2873</ele>
        <time>2022-07-01T16:53:20Z</time>
      </trkpt>
      <trkpt lat="42.5704" lon="1.93218">
        <ele>2874</ele>
        <time>2022-07-01T16:53:29Z</time>
      </trkpt>
      <trkpt lat="42.57045" lon="1.93212">
        <ele>2874</ele>
        <time>2022-07-01T16:53:38Z</time>
      </trkpt>
      <trkpt lat="42.5704" lon="1.93208">
        <ele>2874</ele>
        <time>2022-07-01T16:53:45Z</time>
      </trkpt>
      <trkpt lat="42.57042" lon="1.93205">
        <ele>2874</ele>
        <time>2022-07-01T16:53:49Z</time>
      </trkpt>
      <trkpt lat="42.57038" lon="1.93204">
        <ele>2874</ele>
        <time>2022-07-01T16:53:55Z</time>
      </trkpt>
      <trkpt lat="42.57041" lon="1.93198">
        <ele>2874</ele>
        <time>2022-07-01T16:54:02Z</time>
      </trkpt>
      <trkpt lat="42.57041" lon="1.93189">
        <ele>2874</ele>
        <time>2022-07-01T16:54:11Z</time>
      </trkpt>
      <trkpt lat="42.57041" lon="1.93192">
        <ele>2874</ele>
        <time>2022-07-01T16:54:14Z</time>
      </trkpt>
      <trkpt lat="42.5704" lon="1.9319">
        <ele>2874</ele>
        <time>2022-07-01T16:54:16Z</time>
      </trkpt>
      <trkpt lat="42.57032" lon="1.93194">
        <ele>2873</ele>
        <time>2022-07-01T16:54:27Z</time>
      </trkpt>
      <trkpt lat="42.57031" lon="1.93186">
        <ele>2873</ele>
        <time>2022-07-01T16:54:35Z</time>
      </trkpt>
      <trkpt lat="42.57027" lon="1.93189">
        <ele>2872</ele>
        <time>2022-07-01T16:54:41Z</time>
      </trkpt>
      <trkpt lat="42.57019" lon="1.93185">
        <ele>2871</ele>
        <time>2022-07-01T16:54:53Z</time>
      </trkpt>
      <trkpt lat="42.57018" lon="1.9319">
        <ele>2871</ele>
        <time>2022-07-01T16:54:58Z</time>
      </trkpt>
      <trkpt lat="42.57016" lon="1.93187">
        <ele>2870</ele>
        <time>2022-07-01T16:55:02Z</time>
      </trkpt>
      <trkpt lat="42.57015" lon="1.93189">
        <ele>2871</ele>
        <time>2022-07-01T16:55:04Z</time>
      </trkpt>
      <trkpt lat="42.57018" lon="1.93188">
        <ele>2871</ele>
        <time>2022-07-01T16:55:08Z</time>
      </trkpt>
      <trkpt lat="42.57013" lon="1.93201">
        <ele>2871</ele>
        <time>2022-07-01T16:55:23Z</time>
      </trkpt>
      <trkpt lat="42.57004" lon="1.93207">
        <ele>2872</ele>
        <time>2022-07-01T16:55:36Z</time>
      </trkpt>
      <trkpt lat="42.57002" lon="1.93211">
        <ele>2872</ele>
        <time>2022-07-01T16:55:41Z</time>
      </trkpt>
      <trkpt lat="42.56993" lon="1.93216">
        <ele>2869</ele>
        <time>2022-07-01T16:55:54Z</time>
      </trkpt>
      <trkpt lat="42.56983" lon="1.93211">
        <ele>2863</ele>
        <time>2022-07-01T16:56:08Z</time>
      </trkpt>
      <trkpt lat="42.56988" lon="1.9321">
        <ele>2865</ele>
        <time>2022-07-01T16:56:15Z</time>
      </trkpt>
      <trkpt lat="42.56984" lon="1.93209">
        <ele>2863</ele>
        <time>2022-07-01T16:56:20Z</time>
      </trkpt>
      <trkpt lat="42.56987" lon="1.93215">
        <ele>2865</ele>
        <time>2022-07-01T16:56:27Z</time>
      </trkpt>
      <trkpt lat="42.56984" lon="1.93214">
        <ele>2864</ele>
        <time>2022-07-01T16:56:32Z</time>
      </trkpt>
      <trkpt lat="42.56984" lon="1.93216">
        <ele>2864</ele>
        <time>2022-07-01T16:56:34Z</time>
      </trkpt>
      <trkpt lat="42.56986" lon="1.93215">
        <ele>2865</ele>
        <time>2022-07-01T16:56:36Z</time>
      </trkpt>
      <trkpt lat="42.56984" lon="1.93216">
        <ele>2864</ele>
        <time>2022-07-01T16:56:39Z</time>
      </trkpt>
      <trkpt lat="42.56985" lon="1.93213">
        <ele>2864</ele>
        <time>2022-07-01T16:56:42Z</time>
      </trkpt>
      <trkpt lat="42.56991" lon="1.9322">
        <ele>2869</ele>
        <time>2022-07-01T16:56:53Z</time>
      </trkpt>
      <trkpt lat="42.56994" lon="1.9322">
        <ele>2870</ele>
        <time>2022-07-01T16:56:57Z</time>
      </trkpt>
      <trkpt lat="42.57016" lon="1.93198">
        <ele>2871</ele>
        <time>2022-07-01T16:57:34Z</time>
      </trkpt>
      <trkpt lat="42.57016" lon="1.93195">
        <ele>2871</ele>
        <time>2022-07-01T16:57:36Z</time>
      </trkpt>
      <trkpt lat="42.57024" lon="1.93199">
        <ele>2872</ele>
        <time>2022-07-01T16:57:48Z</time>
      </trkpt>
      <trkpt lat="42.57031" lon="1.93197">
        <ele>2873</ele>
        <time>2022-07-01T16:57:57Z</time>
      </trkpt>
      <trkpt lat="42.57037" lon="1.93194">
        <ele>2873</ele>
        <time>2022-07-01T16:58:06Z</time>
      </trkpt>
      <trkpt lat="42.57042" lon="1.93187">
        <ele>2874</ele>
        <time>2022-07-01T16:58:16Z</time>
      </trkpt>
      <trkpt lat="42.57042" lon="1.93189">
        <ele>2874</ele>
        <time>2022-07-01T16:58:17Z</time>
      </trkpt>
      <trkpt lat="42.57041" lon="1.93187">
        <ele>2874</ele>
        <time>2022-07-01T16:58:20Z</time>
      </trkpt>
      <trkpt lat="42.57053" lon="1.93194">
        <ele>2875</ele>
        <time>2022-07-01T16:58:37Z</time>
      </trkpt>
      <trkpt lat="42.57057" lon="1.93191">
        <ele>2876</ele>
        <time>2022-07-01T16:58:43Z</time>
      </trkpt>
      <trkpt lat="42.57071" lon="1.932">
        <ele>2877</ele>
        <time>2022-07-01T16:59:04Z</time>
      </trkpt>
      <trkpt lat="42.57073" lon="1.93198">
        <ele>2877</ele>
        <time>2022-07-01T16:59:07Z</time>
      </trkpt>
      <trkpt lat="42.57075" lon="1.93214">
        <ele>2875</ele>
        <time>2022-07-01T16:59:23Z</time>
      </trkpt>
      <trkpt lat="42.57078" lon="1.93218">
        <ele>2874</ele>
        <time>2022-07-01T16:59:29Z</time>
      </trkpt>
      <trkpt lat="42.57078" lon="1.93221">
        <ele>2874</ele>
        <time>2022-07-01T16:59:32Z</time>
      </trkpt>
      <trkpt lat="42.57075" lon="1.93223">
        <ele>2873</ele>
        <time>2022-07-01T16:59:36Z</time>
      </trkpt>
      <trkpt lat="42.57085" lon="1.93248">
        <ele>2867</ele>
        <time>2022-07-01T17:00:04Z</time>
      </trkpt>
      <trkpt lat="42.57086" lon="1.9326">
        <ele>2863</ele>
        <time>2022-07-01T17:00:16Z</time>
      </trkpt>
      <trkpt lat="42.57082" lon="1.93257">
        <ele>2865</ele>
        <time>2022-07-01T17:00:22Z</time>
      </trkpt>
      <trkpt lat="42.57087" lon="1.93258">
        <ele>2863</ele>
        <time>2022-07-01T17:00:29Z</time>
      </trkpt>
      <trkpt lat="42.57085" lon="1.93258">
        <ele>2864</ele>
        <time>2022-07-01T17:00:32Z</time>
      </trkpt>
      <trkpt lat="42.57085" lon="1.93262">
        <ele>2862</ele>
        <time>2022-07-01T17:00:36Z</time>
      </trkpt>
      <trkpt lat="42.57082" lon="1.93262">
        <ele>2863</ele>
        <time>2022-07-01T17:00:40Z</time>
      </trkpt>
      <trkpt lat="42.57085" lon="1.93272">
        <ele>2858</ele>
        <time>2022-07-01T17:00:50Z</time>
      </trkpt>
      <trkpt lat="42.57098" lon="1.93308">
        <ele>2838</ele>
        <time>2022-07-01T17:01:30Z</time>
      </trkpt>
      <trkpt lat="42.57108" lon="1.93313">
        <ele>2832</ele>
        <time>2022-07-01T17:01:44Z</time>
      </trkpt>
      <trkpt lat="42.57111" lon="1.93317">
        <ele>2829</ele>
        <time>2022-07-01T17:01:49Z</time>
      </trkpt>
      <trkpt lat="42.571" lon="1.93326">
        <ele>2831</ele>
        <time>2022-07-01T17:02:07Z</time>
      </trkpt>
      <trkpt lat="42.57098" lon="1.93331">
        <ele>2830</ele>
        <time>2022-07-01T17:02:12Z</time>
      </trkpt>
      <trkpt lat="42.57105" lon="1.93349">
        <ele>2820</ele>
        <time>2022-07-01T17:02:32Z</time>
      </trkpt>
      <trkpt lat="42.57129" lon="1.93381">
        <ele>2803</ele>
        <time>2022-07-01T17:03:17Z</time>
      </trkpt>
      <trkpt lat="42.57134" lon="1.93391">
        <ele>2799</ele>
        <time>2022-07-01T17:03:29Z</time>
      </trkpt>
      <trkpt lat="42.57134" lon="1.93396">
        <ele>2798</ele>
        <time>2022-07-01T17:03:34Z</time>
      </trkpt>
      <trkpt lat="42.57136" lon="1.93396">
        <ele>2797</ele>
        <time>2022-07-01T17:03:37Z</time>
      </trkpt>
      <trkpt lat="42.57138" lon="1.93406">
        <ele>2795</ele>
        <time>2022-07-01T17:03:47Z</time>
      </trkpt>
      <trkpt lat="42.57138" lon="1.93404">
        <ele>2795</ele>
        <time>2022-07-01T17:03:49Z</time>
      </trkpt>
      <trkpt lat="42.57146" lon="1.9341">
        <ele>2793</ele>
        <time>2022-07-01T17:04:01Z</time>
      </trkpt>
      <trkpt lat="42.5715" lon="1.93407">
        <ele>2793</ele>
        <time>2022-07-01T17:04:07Z</time>
      </trkpt>
      <trkpt lat="42.5715" lon="1.93413">
        <ele>2792</ele>
        <time>2022-07-01T17:04:13Z</time>
      </trkpt>
      <trkpt lat="42.57153" lon="1.93413">
        <ele>2792</ele>
        <time>2022-07-01T17:04:17Z</time>
      </trkpt>
      <trkpt lat="42.57158" lon="1.93424">
        <ele>2788</ele>
        <time>2022-07-01T17:04:30Z</time>
      </trkpt>
      <trkpt lat="42.5717" lon="1.93438">
        <ele>2779</ele>
        <time>2022-07-01T17:04:51Z</time>
      </trkpt>
      <trkpt lat="42.57182" lon="1.93447">
        <ele>2767</ele>
        <time>2022-07-01T17:05:09Z</time>
      </trkpt>
      <trkpt lat="42.5719" lon="1.93458">
        <ele>2758</ele>
        <time>2022-07-01T17:05:24Z</time>
      </trkpt>
      <trkpt lat="42.5719" lon="1.93463">
        <ele>2756</ele>
        <time>2022-07-01T17:05:29Z</time>
      </trkpt>
      <trkpt lat="42.57193" lon="1.93465">
        <ele>2754</ele>
        <time>2022-07-01T17:05:34Z</time>
      </trkpt>
      <trkpt lat="42.57194" lon="1.93479">
        <ele>2749</ele>
        <time>2022-07-01T17:05:47Z</time>
      </trkpt>
      <trkpt lat="42.57192" lon="1.9348">
        <ele>2750</ele>
        <time>2022-07-01T17:05:50Z</time>
      </trkpt>
      <trkpt lat="42.57201" lon="1.93486">
        <ele>2744</ele>
        <time>2022-07-01T17:06:04Z</time>
      </trkpt>
      <trkpt lat="42.572" lon="1.93504">
        <ele>2740</ele>
        <time>2022-07-01T17:06:21Z</time>
      </trkpt>
      <trkpt lat="42.57207" lon="1.93515">
        <ele>2737</ele>
        <time>2022-07-01T17:06:36Z</time>
      </trkpt>
      <trkpt lat="42.57205" lon="1.93517">
        <ele>2738</ele>
        <time>2022-07-01T17:06:39Z</time>
      </trkpt>
      <trkpt lat="42.57209" lon="1.93525">
        <ele>2737</ele>
        <time>2022-07-01T17:06:48Z</time>
      </trkpt>
      <trkpt lat="42.57209" lon="1.9354">
        <ele>2737</ele>
        <time>2022-07-01T17:07:03Z</time>
      </trkpt>
      <trkpt lat="42.5722" lon="1.93552">
        <ele>2737</ele>
        <time>2022-07-01T17:07:22Z</time>
      </trkpt>
      <trkpt lat="42.57227" lon="1.93572">
        <ele>2739</ele>
        <time>2022-07-01T17:07:44Z</time>
      </trkpt>
      <trkpt lat="42.57226" lon="1.93589">
        <ele>2741</ele>
        <time>2022-07-01T17:08:01Z</time>
      </trkpt>
      <trkpt lat="42.57232" lon="1.936">
        <ele>2744</ele>
        <time>2022-07-01T17:08:14Z</time>
      </trkpt>
      <trkpt lat="42.57233" lon="1.93607">
        <ele>2745</ele>
        <time>2022-07-01T17:08:21Z</time>
      </trkpt>
      <trkpt lat="42.57248" lon="1.93632">
        <ele>2755</ele>
        <time>2022-07-01T17:08:53Z</time>
      </trkpt>
      <trkpt lat="42.57248" lon="1.93637">
        <ele>2756</ele>
        <time>2022-07-01T17:08:58Z</time>
      </trkpt>
      <trkpt lat="42.57254" lon="1.93643">
        <ele>2757</ele>
        <time>2022-07-01T17:09:08Z</time>
      </trkpt>
      <trkpt lat="42.57263" lon="1.93662">
        <ele>2757</ele>
        <time>2022-07-01T17:09:30Z</time>
      </trkpt>
      <trkpt lat="42.57267" lon="1.93682">
        <ele>2759</ele>
        <time>2022-07-01T17:09:50Z</time>
      </trkpt>
      <trkpt lat="42.57268" lon="1.93705">
        <ele>2761</ele>
        <time>2022-07-01T17:10:13Z</time>
      </trkpt>
      <trkpt lat="42.57273" lon="1.93712">
        <ele>2761</ele>
        <time>2022-07-01T17:10:22Z</time>
      </trkpt>
      <trkpt lat="42.57277" lon="1.93732">
        <ele>2764</ele>
        <time>2022-07-01T17:10:43Z</time>
      </trkpt>
      <trkpt lat="42.57277" lon="1.93757">
        <ele>2766</ele>
        <time>2022-07-01T17:11:07Z</time>
      </trkpt>
      <trkpt lat="42.5728" lon="1.93772">
        <ele>2765</ele>
        <time>2022-07-01T17:11:23Z</time>
      </trkpt>
      <trkpt lat="42.57273" lon="1.93777">
        <ele>2764</ele>
        <time>2022-07-01T17:11:33Z</time>
      </trkpt>
      <trkpt lat="42.57265" lon="1.93813">
        <ele>2758</ele>
        <time>2022-07-01T17:12:10Z</time>
      </trkpt>
      <trkpt lat="42.5726" lon="1.93821">
        <ele>2756</ele>
        <time>2022-07-01T17:12:20Z</time>
      </trkpt>
      <trkpt lat="42.57261" lon="1.93826">
        <ele>2755</ele>
        <time>2022-07-01T17:12:25Z</time>
      </trkpt>
      <trkpt lat="42.57257" lon="1.93828">
        <ele>2754</ele>
        <time>2022-07-01T17:12:31Z</time>
      </trkpt>
      <trkpt lat="42.57257" lon="1.93826">
        <ele>2754</ele>
        <time>2022-07-01T17:12:33Z</time>
      </trkpt>
      <trkpt lat="42.57257" lon="1.93829">
        <ele>2754</ele>
        <time>2022-07-01T17:12:36Z</time>
      </trkpt>
      <trkpt lat="42.5726" lon="1.93824">
        <ele>2755</ele>
        <time>2022-07-01T17:12:42Z</time>
      </trkpt>
      <trkpt lat="42.57256" lon="1.93827">
        <ele>2754</ele>
        <time>2022-07-01T17:12:49Z</time>
      </trkpt>
      <trkpt lat="42.57262" lon="1.93826">
        <ele>2756</ele>
        <time>2022-07-01T17:12:57Z</time>
      </trkpt>
      <trkpt lat="42.57264" lon="1.93823">
        <ele>2757</ele>
        <time>2022-07-01T17:13:01Z</time>
      </trkpt>
      <trkpt lat="42.5728" lon="1.93822">
        <ele>2761</ele>
        <time>2022-07-01T17:13:22Z</time>
      </trkpt>
      <trkpt lat="42.57301" lon="1.93803">
        <ele>2766</ele>
        <time>2022-07-01T17:13:56Z</time>
      </trkpt>
      <trkpt lat="42.57323" lon="1.93799">
        <ele>2769</ele>
        <time>2022-07-01T17:14:25Z</time>
      </trkpt>
      <trkpt lat="42.57329" lon="1.93795">
        <ele>2769</ele>
        <time>2022-07-01T17:14:34Z</time>
      </trkpt>
      <trkpt lat="42.57365" lon="1.93793">
        <ele>2760</ele>
        <time>2022-07-01T17:15:22Z</time>
      </trkpt>
      <trkpt lat="42.57369" lon="1.93791">
        <ele>2759</ele>
        <time>2022-07-01T17:15:28Z</time>
      </trkpt>
      <trkpt lat="42.5737" lon="1.93786">
        <ele>2758</ele>
        <time>2022-07-01T17:15:33Z</time>
      </trkpt>
      <trkpt lat="42.57371" lon="1.93795">
        <ele>2759</ele>
        <time>2022-07-01T17:15:42Z</time>
      </trkpt>
      <trkpt lat="42.57405" lon="1.93803">
        <ele>2750</ele>
        <time>2022-07-01T17:16:28Z</time>
      </trkpt>
      <trkpt lat="42.57414" lon="1.93801">
        <ele>2747</ele>
        <time>2022-07-01T17:16:40Z</time>
      </trkpt>
      <trkpt lat="42.57422" lon="1.93805">
        <ele>2746</ele>
        <time>2022-07-01T17:16:52Z</time>
      </trkpt>
      <trkpt lat="42.57425" lon="1.93813">
        <ele>2747</ele>
        <time>2022-07-01T17:17:00Z</time>
      </trkpt>
      <trkpt lat="42.57442" lon="1.93814">
        <ele>2747</ele>
        <time>2022-07-01T17:17:23Z</time>
      </trkpt>
      <trkpt lat="42.5745" lon="1.93818">
        <ele>2747</ele>
        <time>2022-07-01T17:17:34Z</time>
      </trkpt>
      <trkpt lat="42.57464" lon="1.93817">
        <ele>2746</ele>
        <time>2022-07-01T17:17:53Z</time>
      </trkpt>
      <trkpt lat="42.5747" lon="1.9382">
        <ele>2747</ele>
        <time>2022-07-01T17:18:02Z</time>
      </trkpt>
      <trkpt lat="42.57478" lon="1.93817">
        <ele>2746</ele>
        <time>2022-07-01T17:18:13Z</time>
      </trkpt>
      <trkpt lat="42.57496" lon="1.93839">
        <ele>2749</ele>
        <time>2022-07-01T17:18:45Z</time>
      </trkpt>
      <trkpt lat="42.57517" lon="1.93849">
        <ele>2747</ele>
        <time>2022-07-01T17:19:15Z</time>
      </trkpt>
      <trkpt lat="42.57532" lon="1.9386">
        <ele>2747</ele>
        <time>2022-07-01T17:19:38Z</time>
      </trkpt>
      <trkpt lat="42.57538" lon="1.9386">
        <ele>2746</ele>
        <time>2022-07-01T17:19:46Z</time>
      </trkpt>
      <trkpt lat="42.57543" lon="1.93864">
        <ele>2747</ele>
        <time>2022-07-01T17:19:53Z</time>
      </trkpt>
      <trkpt lat="42.57568" lon="1.93893">
        <ele>2752</ele>
        <time>2022-07-01T17:20:37Z</time>
      </trkpt>
      <trkpt lat="42.57591" lon="1.93944">
        <ele>2757</ele>
        <time>2022-07-01T17:21:36Z</time>
      </trkpt>
      <trkpt lat="42.576" lon="1.93952">
        <ele>2754</ele>
        <time>2022-07-01T17:21:50Z</time>
      </trkpt>
      <trkpt lat="42.576" lon="1.93965">
        <ele>2755</ele>
        <time>2022-07-01T17:22:03Z</time>
      </trkpt>
      <trkpt lat="42.57605" lon="1.93964">
        <ele>2753</ele>
        <time>2022-07-01T17:22:10Z</time>
      </trkpt>
      <trkpt lat="42.57602" lon="1.93968">
        <ele>2754</ele>
        <time>2022-07-01T17:22:15Z</time>
      </trkpt>
      <trkpt lat="42.576" lon="1.93986">
        <ele>2755</ele>
        <time>2022-07-01T17:22:33Z</time>
      </trkpt>
      <trkpt lat="42.5761" lon="1.94065">
        <ele>2754</ele>
        <time>2022-07-01T17:23:52Z</time>
      </trkpt>
      <trkpt lat="42.57631" lon="1.94075">
        <ele>2757</ele>
        <time>2022-07-01T17:24:22Z</time>
      </trkpt>
      <trkpt lat="42.57642" lon="1.94099">
        <ele>2758</ele>
        <time>2022-07-01T17:24:50Z</time>
      </trkpt>
      <trkpt lat="42.57649" lon="1.94108">
        <ele>2760</ele>
        <time>2022-07-01T17:25:02Z</time>
      </trkpt>
      <trkpt lat="42.57662" lon="1.94136">
        <ele>2764</ele>
        <time>2022-07-01T17:25:35Z</time>
      </trkpt>
      <trkpt lat="42.57662" lon="1.94144">
        <ele>2764</ele>
        <time>2022-07-01T17:25:43Z</time>
      </trkpt>
      <trkpt lat="42.57666" lon="1.94154">
        <ele>2766</ele>
        <time>2022-07-01T17:25:54Z</time>
      </trkpt>
      <trkpt lat="42.57679" lon="1.94176">
        <ele>2762</ele>
        <time>2022-07-01T17:26:22Z</time>
      </trkpt>
      <trkpt lat="42.57686" lon="1.94194">
        <ele>2759</ele>
        <time>2022-07-01T17:26:42Z</time>
      </trkpt>
      <trkpt lat="42.57694" lon="1.94219">
        <ele>2757</ele>
        <time>2022-07-01T17:27:08Z</time>
      </trkpt>
      <trkpt lat="42.57695" lon="1.94231">
        <ele>2756</ele>
        <time>2022-07-01T17:27:20Z</time>
      </trkpt>
      <trkpt lat="42.57699" lon="1.94238">
        <ele>2756</ele>
        <time>2022-07-01T17:27:29Z</time>
      </trkpt>
      <trkpt lat="42.57703" lon="1.94238">
        <ele>2756</ele>
        <time>2022-07-01T17:27:34Z</time>
      </trkpt>
      <trkpt lat="42.5771" lon="1.94252">
        <ele>2756</ele>
        <time>2022-07-01T17:27:51Z</time>
      </trkpt>
      <trkpt lat="42.57719" lon="1.94256">
        <ele>2755</ele>
        <time>2022-07-01T17:28:04Z</time>
      </trkpt>
      <trkpt lat="42.57726" lon="1.94254">
        <ele>2756</ele>
        <time>2022-07-01T17:28:13Z</time>
      </trkpt>
      <trkpt lat="42.57735" lon="1.94258">
        <ele>2755</ele>
        <time>2022-07-01T17:28:26Z</time>
      </trkpt>
      <trkpt lat="42.57743" lon="1.9427">
        <ele>2754</ele>
        <time>2022-07-01T17:28:42Z</time>
      </trkpt>
      <trkpt lat="42.5776" lon="1.94281">
        <ele>2753</ele>
        <time>2022-07-01T17:29:07Z</time>
      </trkpt>
      <trkpt lat="42.57791" lon="1.94287">
        <ele>2754</ele>
        <time>2022-07-01T17:29:49Z</time>
      </trkpt>
      <trkpt lat="42.578" lon="1.94291">
        <ele>2755</ele>
        <time>2022-07-01T17:30:01Z</time>
      </trkpt>
      <trkpt lat="42.57807" lon="1.9429">
        <ele>2756</ele>
        <time>2022-07-01T17:30:11Z</time>
      </trkpt>
      <trkpt lat="42.57809" lon="1.94298">
        <ele>2756</ele>
        <time>2022-07-01T17:30:19Z</time>
      </trkpt>
      <trkpt lat="42.57817" lon="1.94302">
        <ele>2757</ele>
        <time>2022-07-01T17:30:30Z</time>
      </trkpt>
      <trkpt lat="42.57831" lon="1.94304">
        <ele>2759</ele>
        <time>2022-07-01T17:30:49Z</time>
      </trkpt>
      <trkpt lat="42.57847" lon="1.94312">
        <ele>2764</ele>
        <time>2022-07-01T17:31:12Z</time>
      </trkpt>
      <trkpt lat="42.57858" lon="1.94312">
        <ele>2766</ele>
        <time>2022-07-01T17:31:27Z</time>
      </trkpt>
      <trkpt lat="42.57878" lon="1.94318">
        <ele>2772</ele>
        <time>2022-07-01T17:31:54Z</time>
      </trkpt>
      <trkpt lat="42.57906" lon="1.94345">
        <ele>2781</ele>
        <time>2022-07-01T17:32:40Z</time>
      </trkpt>
      <trkpt lat="42.57914" lon="1.94356">
        <ele>2782</ele>
        <time>2022-07-01T17:32:55Z</time>
      </trkpt>
      <trkpt lat="42.57918" lon="1.94354">
        <ele>2783</ele>
        <time>2022-07-01T17:33:01Z</time>
      </trkpt>
      <trkpt lat="42.57925" lon="1.94334">
        <ele>2785</ele>
        <time>2022-07-01T17:33:22Z</time>
      </trkpt>
      <trkpt lat="42.57928" lon="1.94316">
        <ele>2783</ele>
        <time>2022-07-01T17:33:41Z</time>
      </trkpt>
      <trkpt lat="42.57926" lon="1.94295">
        <ele>2779</ele>
        <time>2022-07-01T17:34:01Z</time>
      </trkpt>
      <trkpt lat="42.57928" lon="1.94298">
        <ele>2780</ele>
        <time>2022-07-01T17:34:05Z</time>
      </trkpt>
      <trkpt lat="42.57926" lon="1.94297">
        <ele>2779</ele>
        <time>2022-07-01T17:34:08Z</time>
      </trkpt>
      <trkpt lat="42.57931" lon="1.94289">
        <ele>2779</ele>
        <time>2022-07-01T17:34:18Z</time>
      </trkpt>
      <trkpt lat="42.57933" lon="1.9429">
        <ele>2779</ele>
        <time>2022-07-01T17:34:21Z</time>
      </trkpt>
      <trkpt lat="42.57932" lon="1.94298">
        <ele>2780</ele>
        <time>2022-07-01T17:34:29Z</time>
      </trkpt>
      <trkpt lat="42.57936" lon="1.94304">
        <ele>2782</ele>
        <time>2022-07-01T17:34:37Z</time>
      </trkpt>
      <trkpt lat="42.57952" lon="1.94312">
        <ele>2785</ele>
        <time>2022-07-01T17:35:00Z</time>
      </trkpt>
      <trkpt lat="42.58" lon="1.94301">
        <ele>2792</ele>
        <time>2022-07-01T17:36:05Z</time>
      </trkpt>
      <trkpt lat="42.58019" lon="1.94301">
        <ele>2793</ele>
        <time>2022-07-01T17:36:30Z</time>
      </trkpt>
      <trkpt lat="42.58034" lon="1.94295">
        <ele>2794</ele>
        <time>2022-07-01T17:36:51Z</time>
      </trkpt>
      <trkpt lat="42.58054" lon="1.9428">
        <ele>2795</ele>
        <time>2022-07-01T17:37:22Z</time>
      </trkpt>
      <trkpt lat="42.58068" lon="1.94262">
        <ele>2796</ele>
        <time>2022-07-01T17:37:47Z</time>
      </trkpt>
      <trkpt lat="42.58114" lon="1.94177">
        <ele>2795</ele>
        <time>2022-07-01T17:39:31Z</time>
      </trkpt>
      <trkpt lat="42.5815" lon="1.94125">
        <ele>2794</ele>
        <time>2022-07-01T17:40:41Z</time>
      </trkpt>
      <trkpt lat="42.58181" lon="1.94068">
        <ele>2788</ele>
        <time>2022-07-01T17:41:51Z</time>
      </trkpt>
      <trkpt lat="42.58199" lon="1.94053">
        <ele>2785</ele>
        <time>2022-07-01T17:42:19Z</time>
      </trkpt>
      <trkpt lat="42.58219" lon="1.94029">
        <ele>2780</ele>
        <time>2022-07-01T17:42:55Z</time>
      </trkpt>
      <trkpt lat="42.58245" lon="1.94106">
        <ele>2797</ele>
        <time>2022-07-01T17:44:18Z</time>
      </trkpt>
      <trkpt lat="42.58248" lon="1.94137">
        <ele>2797</ele>
        <time>2022-07-01T17:44:49Z</time>
      </trkpt>
      <trkpt lat="42.5826" lon="1.94188">
        <ele>2794</ele>
        <time>2022-07-01T17:45:41Z</time>
      </trkpt>
      <trkpt lat="42.58286" lon="1.9428">
        <ele>2791</ele>
        <time>2022-07-01T17:47:18Z</time>
      </trkpt>
      <trkpt lat="42.58303" lon="1.94367">
        <ele>2790</ele>
        <time>2022-07-01T17:48:46Z</time>
      </trkpt>
      <trkpt lat="42.58307" lon="1.94383">
        <ele>2790</ele>
        <time>2022-07-01T17:49:03Z</time>
      </trkpt>
      <trkpt lat="42.58318" lon="1.94404">
        <ele>2789</ele>
        <time>2022-07-01T17:49:28Z</time>
      </trkpt>
      <trkpt lat="42.58317" lon="1.94442">
        <ele>2788</ele>
        <time>2022-07-01T17:50:06Z</time>
      </trkpt>
      <trkpt lat="42.58329" lon="1.94521">
        <ele>2783</ele>
        <time>2022-07-01T17:51:25Z</time>
      </trkpt>
      <trkpt lat="42.58325" lon="1.94547">
        <ele>2781</ele>
        <time>2022-07-01T17:51:51Z</time>
      </trkpt>
      <trkpt lat="42.58323" lon="1.946">
        <ele>2778</ele>
        <time>2022-07-01T17:52:43Z</time>
      </trkpt>
      <trkpt lat="42.58339" lon="1.94633">
        <ele>2776</ele>
        <time>2022-07-01T17:53:22Z</time>
      </trkpt>
      <trkpt lat="42.58358" lon="1.94692">
        <ele>2768</ele>
        <time>2022-07-01T17:54:25Z</time>
      </trkpt>
      <trkpt lat="42.58368" lon="1.94715">
        <ele>2767</ele>
        <time>2022-07-01T17:54:52Z</time>
      </trkpt>
      <trkpt lat="42.58386" lon="1.94783">
        <ele>2769</ele>
        <time>2022-07-01T17:56:03Z</time>
      </trkpt>
      <trkpt lat="42.58385" lon="1.94827">
        <ele>2773</ele>
        <time>2022-07-01T17:56:46Z</time>
      </trkpt>
      <trkpt lat="42.58379" lon="1.94849">
        <ele>2772</ele>
        <time>2022-07-01T17:57:09Z</time>
      </trkpt>
      <trkpt lat="42.58379" lon="1.94857">
        <ele>2771</ele>
        <time>2022-07-01T17:57:17Z</time>
      </trkpt>
      <trkpt lat="42.58389" lon="1.94914">
        <ele>2769</ele>
        <time>2022-07-01T17:58:14Z</time>
      </trkpt>
      <trkpt lat="42.5839" lon="1.94937">
        <ele>2764</ele>
        <time>2022-07-01T17:58:37Z</time>
      </trkpt>
      <trkpt lat="42.58383" lon="1.94959">
        <ele>2759</ele>
        <time>2022-07-01T17:59:00Z</time>
      </trkpt>
      <trkpt lat="42.58384" lon="1.94974">
        <ele>2756</ele>
        <time>2022-07-01T17:59:15Z</time>
      </trkpt>
      <trkpt lat="42.58381" lon="1.94976">
        <ele>2755</ele>
        <time>2022-07-01T17:59:20Z</time>
      </trkpt>
      <trkpt lat="42.58375" lon="1.94993">
        <ele>2752</ele>
        <time>2022-07-01T17:59:38Z</time>
      </trkpt>
      <trkpt lat="42.58357" lon="1.95015">
        <ele>2749</ele>
        <time>2022-07-01T18:00:11Z</time>
      </trkpt>
      <trkpt lat="42.58352" lon="1.95036">
        <ele>2745</ele>
        <time>2022-07-01T18:00:32Z</time>
      </trkpt>
      <trkpt lat="42.58354" lon="1.95067">
        <ele>2737</ele>
        <time>2022-07-01T18:01:03Z</time>
      </trkpt>
      <trkpt lat="42.58333" lon="1.95096">
        <ele>2737</ele>
        <time>2022-07-01T18:01:43Z</time>
      </trkpt>
      <trkpt lat="42.5833" lon="1.9512">
        <ele>2732</ele>
        <time>2022-07-01T18:02:07Z</time>
      </trkpt>
      <trkpt lat="42.58332" lon="1.9513">
        <ele>2730</ele>
        <time>2022-07-01T18:02:17Z</time>
      </trkpt>
      <trkpt lat="42.58329" lon="1.9514">
        <ele>2728</ele>
        <time>2022-07-01T18:02:28Z</time>
      </trkpt>
      <trkpt lat="42.58331" lon="1.95142">
        <ele>2728</ele>
        <time>2022-07-01T18:02:31Z</time>
      </trkpt>
      <trkpt lat="42.58326" lon="1.9516">
        <ele>2725</ele>
        <time>2022-07-01T18:02:50Z</time>
      </trkpt>
      <trkpt lat="42.58324" lon="1.95195">
        <ele>2721</ele>
        <time>2022-07-01T18:03:24Z</time>
      </trkpt>
      <trkpt lat="42.58298" lon="1.95232">
        <ele>2717</ele>
        <time>2022-07-01T18:04:14Z</time>
      </trkpt>
      <trkpt lat="42.58286" lon="1.95262">
        <ele>2714</ele>
        <time>2022-07-01T18:04:48Z</time>
      </trkpt>
      <trkpt lat="42.58285" lon="1.95278">
        <ele>2712</ele>
        <time>2022-07-01T18:05:04Z</time>
      </trkpt>
      <trkpt lat="42.58282" lon="1.95279">
        <ele>2712</ele>
        <time>2022-07-01T18:05:08Z</time>
      </trkpt>
      <trkpt lat="42.58277" lon="1.95288">
        <ele>2711</ele>
        <time>2022-07-01T18:05:19Z</time>
      </trkpt>
      <trkpt lat="42.58272" lon="1.95309">
        <ele>2708</ele>
        <time>2022-07-01T18:05:41Z</time>
      </trkpt>
      <trkpt lat="42.58274" lon="1.95325">
        <ele>2706</ele>
        <time>2022-07-01T18:05:57Z</time>
      </trkpt>
      <trkpt lat="42.58278" lon="1.95333">
        <ele>2705</ele>
        <time>2022-07-01T18:06:06Z</time>
      </trkpt>
      <trkpt lat="42.58279" lon="1.95359">
        <ele>2700</ele>
        <time>2022-07-01T18:06:32Z</time>
      </trkpt>
      <trkpt lat="42.58284" lon="1.95378">
        <ele>2697</ele>
        <time>2022-07-01T18:06:52Z</time>
      </trkpt>
      <trkpt lat="42.58279" lon="1.95402">
        <ele>2693</ele>
        <time>2022-07-01T18:07:16Z</time>
      </trkpt>
      <trkpt lat="42.58279" lon="1.95413">
        <ele>2691</ele>
        <time>2022-07-01T18:07:27Z</time>
      </trkpt>
      <trkpt lat="42.58272" lon="1.95439">
        <ele>2688</ele>
        <time>2022-07-01T18:07:54Z</time>
      </trkpt>
      <trkpt lat="42.58273" lon="1.95453">
        <ele>2686</ele>
        <time>2022-07-01T18:08:08Z</time>
      </trkpt>
      <trkpt lat="42.58261" lon="1.95493">
        <ele>2681</ele>
        <time>2022-07-01T18:08:50Z</time>
      </trkpt>
      <trkpt lat="42.58259" lon="1.95532">
        <ele>2678</ele>
        <time>2022-07-01T18:09:29Z</time>
      </trkpt>
      <trkpt lat="42.58253" lon="1.95558">
        <ele>2677</ele>
        <time>2022-07-01T18:09:55Z</time>
      </trkpt>
      <trkpt lat="42.58252" lon="1.95588">
        <ele>2674</ele>
        <time>2022-07-01T18:10:25Z</time>
      </trkpt>
      <trkpt lat="42.58249" lon="1.95597">
        <ele>2674</ele>
        <time>2022-07-01T18:10:35Z</time>
      </trkpt>
      <trkpt lat="42.5825" lon="1.95617">
        <ele>2673</ele>
        <time>2022-07-01T18:10:54Z</time>
      </trkpt>
      <trkpt lat="42.58241" lon="1.95646">
        <ele>2668</ele>
        <time>2022-07-01T18:11:25Z</time>
      </trkpt>
      <trkpt lat="42.58223" lon="1.95687">
        <ele>2659</ele>
        <time>2022-07-01T18:12:12Z</time>
      </trkpt>
      <trkpt lat="42.58222" lon="1.95697">
        <ele>2658</ele>
        <time>2022-07-01T18:12:22Z</time>
      </trkpt>
      <trkpt lat="42.58215" lon="1.95702">
        <ele>2655</ele>
        <time>2022-07-01T18:12:33Z</time>
      </trkpt>
      <trkpt lat="42.58208" lon="1.95717">
        <ele>2653</ele>
        <time>2022-07-01T18:12:50Z</time>
      </trkpt>
      <trkpt lat="42.58207" lon="1.95733">
        <ele>2651</ele>
        <time>2022-07-01T18:13:06Z</time>
      </trkpt>
      <trkpt lat="42.5821" lon="1.95734">
        <ele>2652</ele>
        <time>2022-07-01T18:13:10Z</time>
      </trkpt>
      <trkpt lat="42.58213" lon="1.9572">
        <ele>2654</ele>
        <time>2022-07-01T18:13:24Z</time>
      </trkpt>
      <trkpt lat="42.58221" lon="1.95719">
        <ele>2655</ele>
        <time>2022-07-01T18:13:35Z</time>
      </trkpt>
      <trkpt lat="42.58231" lon="1.95723">
        <ele>2657</ele>
        <time>2022-07-01T18:13:49Z</time>
      </trkpt>
      <trkpt lat="42.58246" lon="1.9576">
        <ele>2654</ele>
        <time>2022-07-01T18:14:31Z</time>
      </trkpt>
      <trkpt lat="42.58245" lon="1.95764">
        <ele>2653</ele>
        <time>2022-07-01T18:14:35Z</time>
      </trkpt>
      <trkpt lat="42.58249" lon="1.95767">
        <ele>2653</ele>
        <time>2022-07-01T18:14:41Z</time>
      </trkpt>
      <trkpt lat="42.58254" lon="1.95781">
        <ele>2649</ele>
        <time>2022-07-01T18:14:56Z</time>
      </trkpt>
      <trkpt lat="42.58263" lon="1.95795">
        <ele>2643</ele>
        <time>2022-07-01T18:15:14Z</time>
      </trkpt>
      <trkpt lat="42.58263" lon="1.9581">
        <ele>2640</ele>
        <time>2022-07-01T18:15:29Z</time>
      </trkpt>
      <trkpt lat="42.58267" lon="1.95819">
        <ele>2637</ele>
        <time>2022-07-01T18:15:39Z</time>
      </trkpt>
      <trkpt lat="42.58271" lon="1.95821">
        <ele>2635</ele>
        <time>2022-07-01T18:15:45Z</time>
      </trkpt>
      <trkpt lat="42.58284" lon="1.95821">
        <ele>2633</ele>
        <time>2022-07-01T18:16:02Z</time>
      </trkpt>
      <trkpt lat="42.58292" lon="1.95831">
        <ele>2628</ele>
        <time>2022-07-01T18:16:17Z</time>
      </trkpt>
      <trkpt lat="42.58296" lon="1.95831">
        <ele>2628</ele>
        <time>2022-07-01T18:16:22Z</time>
      </trkpt>
      <trkpt lat="42.58299" lon="1.95836">
        <ele>2626</ele>
        <time>2022-07-01T18:16:29Z</time>
      </trkpt>
      <trkpt lat="42.58305" lon="1.95839">
        <ele>2623</ele>
        <time>2022-07-01T18:16:37Z</time>
      </trkpt>
      <trkpt lat="42.58312" lon="1.95848">
        <ele>2619</ele>
        <time>2022-07-01T18:16:50Z</time>
      </trkpt>
      <trkpt lat="42.58318" lon="1.95863">
        <ele>2613</ele>
        <time>2022-07-01T18:17:07Z</time>
      </trkpt>
      <trkpt lat="42.5833" lon="1.95879">
        <ele>2606</ele>
        <time>2022-07-01T18:17:29Z</time>
      </trkpt>
      <trkpt lat="42.5835" lon="1.95895">
        <ele>2601</ele>
        <time>2022-07-01T18:18:00Z</time>
      </trkpt>
      <trkpt lat="42.58378" lon="1.95927">
        <ele>2592</ele>
        <time>2022-07-01T18:18:49Z</time>
      </trkpt>
      <trkpt lat="42.58391" lon="1.95947">
        <ele>2587</ele>
        <time>2022-07-01T18:19:15Z</time>
      </trkpt>
      <trkpt lat="42.58392" lon="1.95959">
        <ele>2584</ele>
        <time>2022-07-01T18:19:27Z</time>
      </trkpt>
      <trkpt lat="42.58416" lon="1.96061">
        <ele>2567</ele>
        <time>2022-07-01T18:21:12Z</time>
      </trkpt>
      <trkpt lat="42.58419" lon="1.961">
        <ele>2562</ele>
        <time>2022-07-01T18:21:51Z</time>
      </trkpt>
      <trkpt lat="42.58427" lon="1.96133">
        <ele>2557</ele>
        <time>2022-07-01T18:22:25Z</time>
      </trkpt>
      <trkpt lat="42.5843" lon="1.96137">
        <ele>2557</ele>
        <time>2022-07-01T18:22:31Z</time>
      </trkpt>
      <trkpt lat="42.58429" lon="1.96149">
        <ele>2555</ele>
        <time>2022-07-01T18:22:42Z</time>
      </trkpt>
      <trkpt lat="42.58447" lon="1.96212">
        <ele>2547</ele>
        <time>2022-07-01T18:23:49Z</time>
      </trkpt>
      <trkpt lat="42.58447" lon="1.96226">
        <ele>2545</ele>
        <time>2022-07-01T18:24:03Z</time>
      </trkpt>
      <trkpt lat="42.58455" lon="1.96244">
        <ele>2542</ele>
        <time>2022-07-01T18:24:23Z</time>
      </trkpt>
      <trkpt lat="42.58458" lon="1.96288">
        <ele>2536</ele>
        <time>2022-07-01T18:25:07Z</time>
      </trkpt>
      <trkpt lat="42.58461" lon="1.96292">
        <ele>2536</ele>
        <time>2022-07-01T18:25:12Z</time>
      </trkpt>
      <trkpt lat="42.58463" lon="1.96305">
        <ele>2534</ele>
        <time>2022-07-01T18:25:25Z</time>
      </trkpt>
      <trkpt lat="42.58463" lon="1.9633">
        <ele>2531</ele>
        <time>2022-07-01T18:25:50Z</time>
      </trkpt>
      <trkpt lat="42.58458" lon="1.96353">
        <ele>2528</ele>
        <time>2022-07-01T18:26:13Z</time>
      </trkpt>
      <trkpt lat="42.58461" lon="1.96368">
        <ele>2525</ele>
        <time>2022-07-01T18:26:29Z</time>
      </trkpt>
      <trkpt lat="42.58457" lon="1.96397">
        <ele>2521</ele>
        <time>2022-07-01T18:26:58Z</time>
      </trkpt>
      <trkpt lat="42.58459" lon="1.96407">
        <ele>2519</ele>
        <time>2022-07-01T18:27:08Z</time>
      </trkpt>
      <trkpt lat="42.58456" lon="1.96421">
        <ele>2517</ele>
        <time>2022-07-01T18:27:22Z</time>
      </trkpt>
      <trkpt lat="42.58459" lon="1.96473">
        <ele>2511</ele>
        <time>2022-07-01T18:28:13Z</time>
      </trkpt>
      <trkpt lat="42.58453" lon="1.96494">
        <ele>2509</ele>
        <time>2022-07-01T18:28:36Z</time>
      </trkpt>
      <trkpt lat="42.5845" lon="1.9652">
        <ele>2508</ele>
        <time>2022-07-01T18:29:01Z</time>
      </trkpt>
      <trkpt lat="42.58451" lon="1.96532">
        <ele>2507</ele>
        <time>2022-07-01T18:29:13Z</time>
      </trkpt>
      <trkpt lat="42.58468" lon="1.96589">
        <ele>2505</ele>
        <time>2022-07-01T18:30:14Z</time>
      </trkpt>
      <trkpt lat="42.58477" lon="1.96605">
        <ele>2504</ele>
        <time>2022-07-01T18:30:34Z</time>
      </trkpt>
      <trkpt lat="42.58475" lon="1.96607">
        <ele>2503</ele>
        <time>2022-07-01T18:30:37Z</time>
      </trkpt>
      <trkpt lat="42.58475" lon="1.9663">
        <ele>2501</ele>
        <time>2022-07-01T18:30:59Z</time>
      </trkpt>
      <trkpt lat="42.58485" lon="1.9666">
        <ele>2498</ele>
        <time>2022-07-01T18:31:32Z</time>
      </trkpt>
      <trkpt lat="42.58484" lon="1.96665">
        <ele>2498</ele>
        <time>2022-07-01T18:31:37Z</time>
      </trkpt>
      <trkpt lat="42.58488" lon="1.9667">
        <ele>2497</ele>
        <time>2022-07-01T18:31:44Z</time>
      </trkpt>
      <trkpt lat="42.58493" lon="1.96684">
        <ele>2495</ele>
        <time>2022-07-01T18:31:59Z</time>
      </trkpt>
      <trkpt lat="42.58495" lon="1.96699">
        <ele>2493</ele>
        <time>2022-07-01T18:32:14Z</time>
      </trkpt>
      <trkpt lat="42.58509" lon="1.96734">
        <ele>2484</ele>
        <time>2022-07-01T18:32:54Z</time>
      </trkpt>
      <trkpt lat="42.58508" lon="1.96742">
        <ele>2483</ele>
        <time>2022-07-01T18:33:02Z</time>
      </trkpt>
      <trkpt lat="42.58516" lon="1.96749">
        <ele>2479</ele>
        <time>2022-07-01T18:33:14Z</time>
      </trkpt>
      <trkpt lat="42.58521" lon="1.96758">
        <ele>2475</ele>
        <time>2022-07-01T18:33:25Z</time>
      </trkpt>
      <trkpt lat="42.58523" lon="1.96784">
        <ele>2470</ele>
        <time>2022-07-01T18:33:51Z</time>
      </trkpt>
      <trkpt lat="42.5852" lon="1.96794">
        <ele>2469</ele>
        <time>2022-07-01T18:34:02Z</time>
      </trkpt>
      <trkpt lat="42.58523" lon="1.96803">
        <ele>2466</ele>
        <time>2022-07-01T18:34:11Z</time>
      </trkpt>
      <trkpt lat="42.58522" lon="1.96829">
        <ele>2462</ele>
        <time>2022-07-01T18:34:37Z</time>
      </trkpt>
      <trkpt lat="42.58525" lon="1.96827">
        <ele>2461</ele>
        <time>2022-07-01T18:34:41Z</time>
      </trkpt>
      <trkpt lat="42.58521" lon="1.96884">
        <ele>2452</ele>
        <time>2022-07-01T18:35:38Z</time>
      </trkpt>
      <trkpt lat="42.58523" lon="1.96901">
        <ele>2449</ele>
        <time>2022-07-01T18:35:55Z</time>
      </trkpt>
      <trkpt lat="42.58538" lon="1.96926">
        <ele>2441</ele>
        <time>2022-07-01T18:36:26Z</time>
      </trkpt>
      <trkpt lat="42.58541" lon="1.96937">
        <ele>2438</ele>
        <time>2022-07-01T18:36:38Z</time>
      </trkpt>
      <trkpt lat="42.58539" lon="1.96961">
        <ele>2435</ele>
        <time>2022-07-01T18:37:01Z</time>
      </trkpt>
      <trkpt lat="42.58534" lon="1.96976">
        <ele>2433</ele>
        <time>2022-07-01T18:37:18Z</time>
      </trkpt>
      <trkpt lat="42.5854" lon="1.96997">
        <ele>2429</ele>
        <time>2022-07-01T18:37:40Z</time>
      </trkpt>
      <trkpt lat="42.58545" lon="1.97003">
        <ele>2428</ele>
        <time>2022-07-01T18:37:49Z</time>
      </trkpt>
      <trkpt lat="42.58547" lon="1.9702">
        <ele>2425</ele>
        <time>2022-07-01T18:38:06Z</time>
      </trkpt>
      <trkpt lat="42.58551" lon="1.97026">
        <ele>2424</ele>
        <time>2022-07-01T18:38:14Z</time>
      </trkpt>
      <trkpt lat="42.58555" lon="1.97021">
        <ele>2424</ele>
        <time>2022-07-01T18:38:21Z</time>
      </trkpt>
      <trkpt lat="42.58553" lon="1.97031">
        <ele>2423</ele>
        <time>2022-07-01T18:38:31Z</time>
      </trkpt>
      <trkpt lat="42.58556" lon="1.97048">
        <ele>2420</ele>
        <time>2022-07-01T18:38:48Z</time>
      </trkpt>
      <trkpt lat="42.58554" lon="1.97051">
        <ele>2420</ele>
        <time>2022-07-01T18:38:52Z</time>
      </trkpt>
      <trkpt lat="42.5856" lon="1.97077">
        <ele>2416</ele>
        <time>2022-07-01T18:39:19Z</time>
      </trkpt>
      <trkpt lat="42.58555" lon="1.97088">
        <ele>2414</ele>
        <time>2022-07-01T18:39:32Z</time>
      </trkpt>
      <trkpt lat="42.58553" lon="1.97128">
        <ele>2407</ele>
        <time>2022-07-01T18:40:11Z</time>
      </trkpt>
      <trkpt lat="42.58551" lon="1.97132">
        <ele>2406</ele>
        <time>2022-07-01T18:40:16Z</time>
      </trkpt>
      <trkpt lat="42.58552" lon="1.97143">
        <ele>2404</ele>
        <time>2022-07-01T18:40:27Z</time>
      </trkpt>
      <trkpt lat="42.58558" lon="1.9715">
        <ele>2402</ele>
        <time>2022-07-01T18:40:37Z</time>
      </trkpt>
      <trkpt lat="42.58552" lon="1.97161">
        <ele>2400</ele>
        <time>2022-07-01T18:40:51Z</time>
      </trkpt>
      <trkpt lat="42.58553" lon="1.97163">
        <ele>2400</ele>
        <time>2022-07-01T18:40:53Z</time>
      </trkpt>
      <trkpt lat="42.58549" lon="1.97167">
        <ele>2399</ele>
        <time>2022-07-01T18:41:00Z</time>
      </trkpt>
      <trkpt lat="42.58543" lon="1.97189">
        <ele>2396</ele>
        <time>2022-07-01T18:41:23Z</time>
      </trkpt>
      <trkpt lat="42.58547" lon="1.97208">
        <ele>2393</ele>
        <time>2022-07-01T18:41:42Z</time>
      </trkpt>
      <trkpt lat="42.58546" lon="1.97212">
        <ele>2392</ele>
        <time>2022-07-01T18:41:46Z</time>
      </trkpt>
      <trkpt lat="42.58539" lon="1.97219">
        <ele>2392</ele>
        <time>2022-07-01T18:41:58Z</time>
      </trkpt>
      <trkpt lat="42.58528" lon="1.97237">
        <ele>2392</ele>
        <time>2022-07-01T18:42:21Z</time>
      </trkpt>
      <trkpt lat="42.58525" lon="1.97284">
        <ele>2389</ele>
        <time>2022-07-01T18:43:07Z</time>
      </trkpt>
      <trkpt lat="42.58518" lon="1.9731">
        <ele>2389</ele>
        <time>2022-07-01T18:43:34Z</time>
      </trkpt>
      <trkpt lat="42.58518" lon="1.97334">
        <ele>2388</ele>
        <time>2022-07-01T18:43:58Z</time>
      </trkpt>
      <trkpt lat="42.58504" lon="1.97359">
        <ele>2389</ele>
        <time>2022-07-01T18:44:29Z</time>
      </trkpt>
      <trkpt lat="42.58497" lon="1.97365">
        <ele>2389</ele>
        <time>2022-07-01T18:44:40Z</time>
      </trkpt>
      <trkpt lat="42.58488" lon="1.97396">
        <ele>2385</ele>
        <time>2022-07-01T18:45:13Z</time>
      </trkpt>
      <trkpt lat="42.5848" lon="1.97408">
        <ele>2383</ele>
        <time>2022-07-01T18:45:29Z</time>
      </trkpt>
      <trkpt lat="42.58469" lon="1.97417">
        <ele>2382</ele>
        <time>2022-07-01T18:45:46Z</time>
      </trkpt>
      <trkpt lat="42.58444" lon="1.97423">
        <ele>2379</ele>
        <time>2022-07-01T18:46:20Z</time>
      </trkpt>
      <trkpt lat="42.58437" lon="1.97427">
        <ele>2378</ele>
        <time>2022-07-01T18:46:30Z</time>
      </trkpt>
      <trkpt lat="42.58431" lon="1.97435">
        <ele>2376</ele>
        <time>2022-07-01T18:46:41Z</time>
      </trkpt>
      <trkpt lat="42.58431" lon="1.9744">
        <ele>2375</ele>
        <time>2022-07-01T18:46:46Z</time>
      </trkpt>
      <trkpt lat="42.58424" lon="1.97452">
        <ele>2373</ele>
        <time>2022-07-01T18:47:01Z</time>
      </trkpt>
      <trkpt lat="42.58428" lon="1.97467">
        <ele>2371</ele>
        <time>2022-07-01T18:47:17Z</time>
      </trkpt>
      <trkpt lat="42.58428" lon="1.97486">
        <ele>2368</ele>
        <time>2022-07-01T18:47:35Z</time>
      </trkpt>
      <trkpt lat="42.58421" lon="1.975">
        <ele>2367</ele>
        <time>2022-07-01T18:47:52Z</time>
      </trkpt>
      <trkpt lat="42.58419" lon="1.97515">
        <ele>2363</ele>
        <time>2022-07-01T18:48:07Z</time>
      </trkpt>
      <trkpt lat="42.58414" lon="1.97521">
        <ele>2361</ele>
        <time>2022-07-01T18:48:16Z</time>
      </trkpt>
      <trkpt lat="42.58414" lon="1.97526">
        <ele>2360</ele>
        <time>2022-07-01T18:48:21Z</time>
      </trkpt>
      <trkpt lat="42.58411" lon="1.9753">
        <ele>2358</ele>
        <time>2022-07-01T18:48:26Z</time>
      </trkpt>
      <trkpt lat="42.58415" lon="1.97544">
        <ele>2355</ele>
        <time>2022-07-01T18:48:41Z</time>
      </trkpt>
      <trkpt lat="42.5841" lon="1.97549">
        <ele>2353</ele>
        <time>2022-07-01T18:48:49Z</time>
      </trkpt>
      <trkpt lat="42.58399" lon="1.9755">
        <ele>2351</ele>
        <time>2022-07-01T18:49:04Z</time>
      </trkpt>
      <trkpt lat="42.5839" lon="1.97559">
        <ele>2347</ele>
        <time>2022-07-01T18:49:19Z</time>
      </trkpt>
      <trkpt lat="42.58379" lon="1.97574">
        <ele>2343</ele>
        <time>2022-07-01T18:49:40Z</time>
      </trkpt>
      <trkpt lat="42.58379" lon="1.97584">
        <ele>2342</ele>
        <time>2022-07-01T18:49:50Z</time>
      </trkpt>
      <trkpt lat="42.58371" lon="1.97585">
        <ele>2341</ele>
        <time>2022-07-01T18:50:00Z</time>
      </trkpt>
      <trkpt lat="42.58364" lon="1.97599">
        <ele>2337</ele>
        <time>2022-07-01T18:50:17Z</time>
      </trkpt>
      <trkpt lat="42.58359" lon="1.97604">
        <ele>2336</ele>
        <time>2022-07-01T18:50:25Z</time>
      </trkpt>
      <trkpt lat="42.58361" lon="1.9762">
        <ele>2332</ele>
        <time>2022-07-01T18:50:41Z</time>
      </trkpt>
      <trkpt lat="42.58366" lon="1.97626">
        <ele>2331</ele>
        <time>2022-07-01T18:50:50Z</time>
      </trkpt>
      <trkpt lat="42.58358" lon="1.97633">
        <ele>2329</ele>
        <time>2022-07-01T18:51:03Z</time>
      </trkpt>
      <trkpt lat="42.58336" lon="1.97638">
        <ele>2327</ele>
        <time>2022-07-01T18:51:32Z</time>
      </trkpt>
      <trkpt lat="42.58331" lon="1.97638">
        <ele>2327</ele>
        <time>2022-07-01T18:51:39Z</time>
      </trkpt>
      <trkpt lat="42.58319" lon="1.97627">
        <ele>2326</ele>
        <time>2022-07-01T18:51:58Z</time>
      </trkpt>
      <trkpt lat="42.58305" lon="1.97602">
        <ele>2326</ele>
        <time>2022-07-01T18:52:29Z</time>
      </trkpt>
      <trkpt lat="42.58298" lon="1.97598">
        <ele>2324</ele>
        <time>2022-07-01T18:52:39Z</time>
      </trkpt>
      <trkpt lat="42.58295" lon="1.97592">
        <ele>2324</ele>
        <time>2022-07-01T18:52:47Z</time>
      </trkpt>
      <trkpt lat="42.58274" lon="1.97575">
        <ele>2318</ele>
        <time>2022-07-01T18:53:19Z</time>
      </trkpt>
      <trkpt lat="42.58238" lon="1.97519">
        <ele>2308</ele>
        <time>2022-07-01T18:54:32Z</time>
      </trkpt>
      <trkpt lat="42.58236" lon="1.97523">
        <ele>2308</ele>
        <time>2022-07-01T18:54:37Z</time>
      </trkpt>
      <trkpt lat="42.58233" lon="1.97519">
        <ele>2307</ele>
        <time>2022-07-01T18:54:43Z</time>
      </trkpt>
      <trkpt lat="42.58226" lon="1.97516">
        <ele>2306</ele>
        <time>2022-07-01T18:54:52Z</time>
      </trkpt>
      <trkpt lat="42.58207" lon="1.97519">
        <ele>2304</ele>
        <time>2022-07-01T18:55:18Z</time>
      </trkpt>
      <trkpt lat="42.58198" lon="1.97518">
        <ele>2302</ele>
        <time>2022-07-01T18:55:30Z</time>
      </trkpt>
      <trkpt lat="42.58191" lon="1.97525">
        <ele>2301</ele>
        <time>2022-07-01T18:55:42Z</time>
      </trkpt>
      <trkpt lat="42.58187" lon="1.97525">
        <ele>2300</ele>
        <time>2022-07-01T18:55:47Z</time>
      </trkpt>
      <trkpt lat="42.58185" lon="1.97522">
        <ele>2300</ele>
        <time>2022-07-01T18:55:51Z</time>
      </trkpt>
      <trkpt lat="42.58173" lon="1.97522">
        <ele>2298</ele>
        <time>2022-07-01T18:56:07Z</time>
      </trkpt>
      <trkpt lat="42.5816" lon="1.9753">
        <ele>2297</ele>
        <time>2022-07-01T18:56:26Z</time>
      </trkpt>
      <trkpt lat="42.58146" lon="1.97535">
        <ele>2298</ele>
        <time>2022-07-01T18:56:45Z</time>
      </trkpt>
      <trkpt lat="42.58122" lon="1.9756">
        <ele>2298</ele>
        <time>2022-07-01T18:57:26Z</time>
      </trkpt>
      <trkpt lat="42.58106" lon="1.97571">
        <ele>2298</ele>
        <time>2022-07-01T18:57:50Z</time>
      </trkpt>
      <trkpt lat="42.58091" lon="1.97594">
        <ele>2295</ele>
        <time>2022-07-01T18:58:20Z</time>
      </trkpt>
      <trkpt lat="42.58086" lon="1.97595">
        <ele>2296</ele>
        <time>2022-07-01T18:58:27Z</time>
      </trkpt>
      <trkpt lat="42.58078" lon="1.9759">
        <ele>2297</ele>
        <time>2022-07-01T18:58:38Z</time>
      </trkpt>
      <trkpt lat="42.58067" lon="1.97592">
        <ele>2296</ele>
        <time>2022-07-01T18:58:53Z</time>
      </trkpt>
      <trkpt lat="42.58046" lon="1.97591">
        <ele>2296</ele>
        <time>2022-07-01T18:59:21Z</time>
      </trkpt>
      <trkpt lat="42.58046" lon="1.97598">
        <ele>2295</ele>
        <time>2022-07-01T18:59:28Z</time>
      </trkpt>
      <trkpt lat="42.58027" lon="1.97602">
        <ele>2295</ele>
        <time>2022-07-01T18:59:54Z</time>
      </trkpt>
      <trkpt lat="42.58019" lon="1.97582">
        <ele>2297</ele>
        <time>2022-07-01T19:00:16Z</time>
      </trkpt>
      <trkpt lat="42.58009" lon="1.97574">
        <ele>2298</ele>
        <time>2022-07-01T19:00:32Z</time>
      </trkpt>
      <trkpt lat="42.57992" lon="1.97572">
        <ele>2296</ele>
        <time>2022-07-01T19:00:54Z</time>
      </trkpt>
      <trkpt lat="42.57965" lon="1.97559">
        <ele>2292</ele>
        <time>2022-07-01T19:01:33Z</time>
      </trkpt>
      <trkpt lat="42.57958" lon="1.97561">
        <ele>2291</ele>
        <time>2022-07-01T19:01:42Z</time>
      </trkpt>
      <trkpt lat="42.57951" lon="1.97557">
        <ele>2290</ele>
        <time>2022-07-01T19:01:52Z</time>
      </trkpt>
      <trkpt lat="42.57936" lon="1.97563">
        <ele>2288</ele>
        <time>2022-07-01T19:02:13Z</time>
      </trkpt>
      <trkpt lat="42.57915" lon="1.97562">
        <ele>2284</ele>
        <time>2022-07-01T19:02:41Z</time>
      </trkpt>
      <trkpt lat="42.57903" lon="1.97566">
        <ele>2282</ele>
        <time>2022-07-01T19:02:58Z</time>
      </trkpt>
      <trkpt lat="42.57894" lon="1.97555">
        <ele>2280</ele>
        <time>2022-07-01T19:03:14Z</time>
      </trkpt>
      <trkpt lat="42.57897" lon="1.97544">
        <ele>2281</ele>
        <time>2022-07-01T19:03:25Z</time>
      </trkpt>
      <trkpt lat="42.57893" lon="1.97536">
        <ele>2280</ele>
        <time>2022-07-01T19:03:35Z</time>
      </trkpt>
      <trkpt lat="42.57873" lon="1.97529">
        <ele>2276</ele>
        <time>2022-07-01T19:04:02Z</time>
      </trkpt>
      <trkpt lat="42.57863" lon="1.97532">
        <ele>2274</ele>
        <time>2022-07-01T19:04:16Z</time>
      </trkpt>
      <trkpt lat="42.57849" lon="1.97525">
        <ele>2271</ele>
        <time>2022-07-01T19:04:36Z</time>
      </trkpt>
      <trkpt lat="42.57837" lon="1.97528">
        <ele>2268</ele>
        <time>2022-07-01T19:04:52Z</time>
      </trkpt>
      <trkpt lat="42.57821" lon="1.97518">
        <ele>2266</ele>
        <time>2022-07-01T19:05:16Z</time>
      </trkpt>
      <trkpt lat="42.57815" lon="1.97507">
        <ele>2264</ele>
        <time>2022-07-01T19:05:29Z</time>
      </trkpt>
      <trkpt lat="42.5781" lon="1.97505">
        <ele>2264</ele>
        <time>2022-07-01T19:05:36Z</time>
      </trkpt>
      <trkpt lat="42.57812" lon="1.97505">
        <ele>2264</ele>
        <time>2022-07-01T19:05:39Z</time>
      </trkpt>
      <trkpt lat="42.57802" lon="1.97488">
        <ele>2262</ele>
        <time>2022-07-01T19:06:00Z</time>
      </trkpt>
      <trkpt lat="42.57799" lon="1.9749">
        <ele>2262</ele>
        <time>2022-07-01T19:06:05Z</time>
      </trkpt>
      <trkpt lat="42.57793" lon="1.97489">
        <ele>2261</ele>
        <time>2022-07-01T19:06:13Z</time>
      </trkpt>
      <trkpt lat="42.57782" lon="1.97478">
        <ele>2259</ele>
        <time>2022-07-01T19:06:31Z</time>
      </trkpt>
      <trkpt lat="42.57779" lon="1.97466">
        <ele>2259</ele>
        <time>2022-07-01T19:06:43Z</time>
      </trkpt>
      <trkpt lat="42.57772" lon="1.97459">
        <ele>2258</ele>
        <time>2022-07-01T19:06:55Z</time>
      </trkpt>
      <trkpt lat="42.5775" lon="1.97423">
        <ele>2257</ele>
        <time>2022-07-01T19:07:41Z</time>
      </trkpt>
      <trkpt lat="42.57743" lon="1.97405">
        <ele>2258</ele>
        <time>2022-07-01T19:08:01Z</time>
      </trkpt>
      <trkpt lat="42.57726" lon="1.97392">
        <ele>2258</ele>
        <time>2022-07-01T19:08:27Z</time>
      </trkpt>
      <trkpt lat="42.57734" lon="1.97393">
        <ele>2259</ele>
        <time>2022-07-01T19:08:38Z</time>
      </trkpt>
      <trkpt lat="42.57731" lon="1.97385">
        <ele>2260</ele>
        <time>2022-07-01T19:08:47Z</time>
      </trkpt>
      <trkpt lat="42.5772" lon="1.97378">
        <ele>2259</ele>
        <time>2022-07-01T19:09:03Z</time>
      </trkpt>
      <trkpt lat="42.57716" lon="1.9738">
        <ele>2258</ele>
        <time>2022-07-01T19:09:08Z</time>
      </trkpt>
      <trkpt lat="42.57709" lon="1.97373">
        <ele>2258</ele>
        <time>2022-07-01T19:09:20Z</time>
      </trkpt>
      <trkpt lat="42.57704" lon="1.97348">
        <ele>2260</ele>
        <time>2022-07-01T19:09:45Z</time>
      </trkpt>
      <trkpt lat="42.57697" lon="1.97342">
        <ele>2259</ele>
        <time>2022-07-01T19:09:57Z</time>
      </trkpt>
      <trkpt lat="42.57686" lon="1.97336">
        <ele>2257</ele>
        <time>2022-07-01T19:10:12Z</time>
      </trkpt>
      <trkpt lat="42.57674" lon="1.97338">
        <ele>2254</ele>
        <time>2022-07-01T19:10:28Z</time>
      </trkpt>
      <trkpt lat="42.57659" lon="1.97319">
        <ele>2255</ele>
        <time>2022-07-01T19:10:56Z</time>
      </trkpt>
      <trkpt lat="42.57639" lon="1.9732">
        <ele>2254</ele>
        <time>2022-07-01T19:11:23Z</time>
      </trkpt>
      <trkpt lat="42.57625" lon="1.97318">
        <ele>2254</ele>
        <time>2022-07-01T19:11:41Z</time>
      </trkpt>
      <trkpt lat="42.57605" lon="1.97298">
        <ele>2256</ele>
        <time>2022-07-01T19:12:14Z</time>
      </trkpt>
      <trkpt lat="42.57605" lon="1.97292">
        <ele>2257</ele>
        <time>2022-07-01T19:12:20Z</time>
      </trkpt>
      <trkpt lat="42.57623" lon="1.97315">
        <ele>2254</ele>
        <time>2022-07-01T19:12:53Z</time>
      </trkpt>
      <trkpt lat="42.57625" lon="1.97315">
        <ele>2254</ele>
        <time>2022-07-01T19:12:56Z</time>
      </trkpt>
      <trkpt lat="42.57618" lon="1.97314">
        <ele>2254</ele>
        <time>2022-07-01T19:13:05Z</time>
      </trkpt>
      <trkpt lat="42.57623" lon="1.97313">
        <ele>2255</ele>
        <time>2022-07-01T19:13:12Z</time>
      </trkpt>
      <trkpt lat="42.57622" lon="1.97315">
        <ele>2254</ele>
        <time>2022-07-01T19:13:15Z</time>
      </trkpt>
      <trkpt lat="42.57625" lon="1.97317">
        <ele>2254</ele>
        <time>2022-07-01T19:13:19Z</time>
      </trkpt>
      <trkpt lat="42.57622" lon="1.97316">
        <ele>2254</ele>
        <time>2022-07-01T19:13:23Z</time>
      </trkpt>
      <trkpt lat="42.57623" lon="1.97323">
        <ele>2253</ele>
        <time>2022-07-01T19:13:30Z</time>
      </trkpt>
      <trkpt lat="42.57621" lon="1.97328">
        <ele>2253</ele>
        <time>2022-07-01T19:13:36Z</time>
      </trkpt>
      <trkpt lat="42.57614" lon="1.97321">
        <ele>2253</ele>
        <time>2022-07-01T19:13:47Z</time>
      </trkpt>
      <trkpt lat="42.57606" lon="1.97318">
        <ele>2253</ele>
        <time>2022-07-01T19:13:58Z</time>
      </trkpt>
      <trkpt lat="42.57585" lon="1.97323">
        <ele>2252</ele>
        <time>2022-07-01T19:14:27Z</time>
      </trkpt>
      <trkpt lat="42.57564" lon="1.97341">
        <ele>2249</ele>
        <time>2022-07-01T19:15:00Z</time>
      </trkpt>
      <trkpt lat="42.57559" lon="1.9734">
        <ele>2249</ele>
        <time>2022-07-01T19:15:07Z</time>
      </trkpt>
      <trkpt lat="42.57557" lon="1.97334">
        <ele>2249</ele>
        <time>2022-07-01T19:15:13Z</time>
      </trkpt>
      <trkpt lat="42.57549" lon="1.97333">
        <ele>2249</ele>
        <time>2022-07-01T19:15:24Z</time>
      </trkpt>
      <trkpt lat="42.57543" lon="1.97326">
        <ele>2249</ele>
        <time>2022-07-01T19:15:34Z</time>
      </trkpt>
      <trkpt lat="42.57534" lon="1.97322">
        <ele>2248</ele>
        <time>2022-07-01T19:15:47Z</time>
      </trkpt>
      <trkpt lat="42.57492" lon="1.97285">
        <ele>2246</ele>
        <time>2022-07-01T19:16:54Z</time>
      </trkpt>
      <trkpt lat="42.57474" lon="1.97266">
        <ele>2245</ele>
        <time>2022-07-01T19:17:24Z</time>
      </trkpt>
      <trkpt lat="42.5747" lon="1.97271">
        <ele>2244</ele>
        <time>2022-07-01T19:17:32Z</time>
      </trkpt>
      <trkpt lat="42.5746" lon="1.97256">
        <ele>2243</ele>
        <time>2022-07-01T19:17:51Z</time>
      </trkpt>
      <trkpt lat="42.57441" lon="1.97238">
        <ele>2241</ele>
        <time>2022-07-01T19:18:22Z</time>
      </trkpt>
      <trkpt lat="42.57436" lon="1.97242">
        <ele>2240</ele>
        <time>2022-07-01T19:18:30Z</time>
      </trkpt>
      <trkpt lat="42.57429" lon="1.97239">
        <ele>2240</ele>
        <time>2022-07-01T19:18:40Z</time>
      </trkpt>
      <trkpt lat="42.57413" lon="1.97256">
        <ele>2238</ele>
        <time>2022-07-01T19:19:07Z</time>
      </trkpt>
      <trkpt lat="42.57403" lon="1.9726">
        <ele>2239</ele>
        <time>2022-07-01T19:19:21Z</time>
      </trkpt>
      <trkpt lat="42.57406" lon="1.97268">
        <ele>2239</ele>
        <time>2022-07-01T19:19:30Z</time>
      </trkpt>
      <trkpt lat="42.57399" lon="1.9728">
        <ele>2240</ele>
        <time>2022-07-01T19:19:45Z</time>
      </trkpt>
      <trkpt lat="42.57396" lon="1.97294">
        <ele>2240</ele>
        <time>2022-07-01T19:19:59Z</time>
      </trkpt>
      <trkpt lat="42.57388" lon="1.9736">
        <ele>2242</ele>
        <time>2022-07-01T19:21:05Z</time>
      </trkpt>
      <trkpt lat="42.57361" lon="1.97446">
        <ele>2243</ele>
        <time>2022-07-01T19:22:37Z</time>
      </trkpt>
      <trkpt lat="42.57324" lon="1.97503">
        <ele>2243</ele>
        <time>2022-07-01T19:23:51Z</time>
      </trkpt>
      <trkpt lat="42.57303" lon="1.97553">
        <ele>2241</ele>
        <time>2022-07-01T19:24:48Z</time>
      </trkpt>
      <trkpt lat="42.57288" lon="1.97581">
        <ele>2239</ele>
        <time>2022-07-01T19:25:22Z</time>
      </trkpt>
      <trkpt lat="42.5728" lon="1.9759">
        <ele>2238</ele>
        <time>2022-07-01T19:25:36Z</time>
      </trkpt>
      <trkpt lat="42.57267" lon="1.97637">
        <ele>2236</ele>
        <time>2022-07-01T19:26:25Z</time>
      </trkpt>
      <trkpt lat="42.57265" lon="1.97662">
        <ele>2234</ele>
        <time>2022-07-01T19:26:50Z</time>
      </trkpt>
      <trkpt lat="42.57249" lon="1.9767">
        <ele>2232</ele>
        <time>2022-07-01T19:27:13Z</time>
      </trkpt>
      <trkpt lat="42.5724" lon="1.97686">
        <ele>2231</ele>
        <time>2022-07-01T19:27:32Z</time>
      </trkpt>
      <trkpt lat="42.57237" lon="1.97701">
        <ele>2230</ele>
        <time>2022-07-01T19:27:48Z</time>
      </trkpt>
      <trkpt lat="42.5722" lon="1.97736">
        <ele>2226</ele>
        <time>2022-07-01T19:28:29Z</time>
      </trkpt>
      <trkpt lat="42.57208" lon="1.97752">
        <ele>2225</ele>
        <time>2022-07-01T19:28:51Z</time>
      </trkpt>
      <trkpt lat="42.572" lon="1.97758">
        <ele>2224</ele>
        <time>2022-07-01T19:29:04Z</time>
      </trkpt>
      <trkpt lat="42.57193" lon="1.9776">
        <ele>2224</ele>
        <time>2022-07-01T19:29:13Z</time>
      </trkpt>
      <trkpt lat="42.57161" lon="1.97811">
        <ele>2217</ele>
        <time>2022-07-01T19:30:19Z</time>
      </trkpt>
      <trkpt lat="42.57142" lon="1.97835">
        <ele>2212</ele>
        <time>2022-07-01T19:30:54Z</time>
      </trkpt>
      <trkpt lat="42.57137" lon="1.97849">
        <ele>2211</ele>
        <time>2022-07-01T19:31:09Z</time>
      </trkpt>
      <trkpt lat="42.57125" lon="1.97866">
        <ele>2209</ele>
        <time>2022-07-01T19:31:32Z</time>
      </trkpt>
      <trkpt lat="42.57111" lon="1.97872">
        <ele>2205</ele>
        <time>2022-07-01T19:31:52Z</time>
      </trkpt>
      <trkpt lat="42.57101" lon="1.97882">
        <ele>2202</ele>
        <time>2022-07-01T19:32:08Z</time>
      </trkpt>
      <trkpt lat="42.57091" lon="1.97884">
        <ele>2199</ele>
        <time>2022-07-01T19:32:22Z</time>
      </trkpt>
      <trkpt lat="42.57078" lon="1.97891">
        <ele>2195</ele>
        <time>2022-07-01T19:32:40Z</time>
      </trkpt>
      <trkpt lat="42.57073" lon="1.97901">
        <ele>2193</ele>
        <time>2022-07-01T19:32:52Z</time>
      </trkpt>
      <trkpt lat="42.57066" lon="1.97903">
        <ele>2192</ele>
        <time>2022-07-01T19:33:02Z</time>
      </trkpt>
      <trkpt lat="42.57067" lon="1.97901">
        <ele>2193</ele>
        <time>2022-07-01T19:33:04Z</time>
      </trkpt>
      <trkpt lat="42.57046" lon="1.97914">
        <ele>2189</ele>
        <time>2022-07-01T19:33:35Z</time>
      </trkpt>
      <trkpt lat="42.57036" lon="1.97922">
        <ele>2188</ele>
        <time>2022-07-01T19:33:50Z</time>
      </trkpt>
      <trkpt lat="42.57027" lon="1.97944">
        <ele>2187</ele>
        <time>2022-07-01T19:34:15Z</time>
      </trkpt>
      <trkpt lat="42.57011" lon="1.97951">
        <ele>2185</ele>
        <time>2022-07-01T19:34:38Z</time>
      </trkpt>
      <trkpt lat="42.56993" lon="1.9794">
        <ele>2184</ele>
        <time>2022-07-01T19:35:04Z</time>
      </trkpt>
      <trkpt lat="42.56985" lon="1.97929">
        <ele>2184</ele>
        <time>2022-07-01T19:35:19Z</time>
      </trkpt>
      <trkpt lat="42.56979" lon="1.9793">
        <ele>2184</ele>
        <time>2022-07-01T19:35:27Z</time>
      </trkpt>
      <trkpt lat="42.56969" lon="1.97938">
        <ele>2184</ele>
        <time>2022-07-01T19:35:43Z</time>
      </trkpt>
      <trkpt lat="42.56956" lon="1.97957">
        <ele>2184</ele>
        <time>2022-07-01T19:36:08Z</time>
      </trkpt>
      <trkpt lat="42.56949" lon="1.97972">
        <ele>2184</ele>
        <time>2022-07-01T19:36:26Z</time>
      </trkpt>
      <trkpt lat="42.56941" lon="1.97981">
        <ele>2184</ele>
        <time>2022-07-01T19:36:40Z</time>
      </trkpt>
      <trkpt lat="42.56927" lon="1.98007">
        <ele>2184</ele>
        <time>2022-07-01T19:37:11Z</time>
      </trkpt>
      <trkpt lat="42.56903" lon="1.98041">
        <ele>2183</ele>
        <time>2022-07-01T19:37:57Z</time>
      </trkpt>
      <trkpt lat="42.56882" lon="1.98061">
        <ele>2181</ele>
        <time>2022-07-01T19:38:32Z</time>
      </trkpt>
      <trkpt lat="42.56872" lon="1.98063">
        <ele>2181</ele>
        <time>2022-07-01T19:38:45Z</time>
      </trkpt>
      <trkpt lat="42.56834" lon="1.98082">
        <ele>2179</ele>
        <time>2022-07-01T19:39:39Z</time>
      </trkpt>
      <trkpt lat="42.56823" lon="1.98091">
        <ele>2179</ele>
        <time>2022-07-01T19:39:56Z</time>
      </trkpt>
      <trkpt lat="42.56805" lon="1.98118">
        <ele>2180</ele>
        <time>2022-07-01T19:40:32Z</time>
      </trkpt>
      <trkpt lat="42.5679" lon="1.98131">
        <ele>2180</ele>
        <time>2022-07-01T19:40:56Z</time>
      </trkpt>
      <trkpt lat="42.56757" lon="1.98182">
        <ele>2181</ele>
        <time>2022-07-01T19:42:03Z</time>
      </trkpt>
      <trkpt lat="42.56754" lon="1.982">
        <ele>2180</ele>
        <time>2022-07-01T19:42:21Z</time>
      </trkpt>
      <trkpt lat="42.56744" lon="1.98214">
        <ele>2178</ele>
        <time>2022-07-01T19:42:40Z</time>
      </trkpt>
      <trkpt lat="42.56701" lon="1.98236">
        <ele>2170</ele>
        <time>2022-07-01T19:43:41Z</time>
      </trkpt>
      <trkpt lat="42.56691" lon="1.98234">
        <ele>2169</ele>
        <time>2022-07-01T19:43:55Z</time>
      </trkpt>
      <trkpt lat="42.5668" lon="1.98249">
        <ele>2165</ele>
        <time>2022-07-01T19:44:16Z</time>
      </trkpt>
      <trkpt lat="42.56664" lon="1.98261">
        <ele>2162</ele>
        <time>2022-07-01T19:44:40Z</time>
      </trkpt>
      <trkpt lat="42.56649" lon="1.98258">
        <ele>2161</ele>
        <time>2022-07-01T19:45:00Z</time>
      </trkpt>
      <trkpt lat="42.56643" lon="1.98259">
        <ele>2160</ele>
        <time>2022-07-01T19:45:08Z</time>
      </trkpt>
      <trkpt lat="42.56638" lon="1.98264">
        <ele>2159</ele>
        <time>2022-07-01T19:45:17Z</time>
      </trkpt>
      <trkpt lat="42.56631" lon="1.98263">
        <ele>2159</ele>
        <time>2022-07-01T19:45:26Z</time>
      </trkpt>
      <trkpt lat="42.56614" lon="1.98267">
        <ele>2157</ele>
        <time>2022-07-01T19:45:49Z</time>
      </trkpt>
      <trkpt lat="42.56583" lon="1.98268">
        <ele>2154</ele>
        <time>2022-07-01T19:46:30Z</time>
      </trkpt>
      <trkpt lat="42.56578" lon="1.98272">
        <ele>2154</ele>
        <time>2022-07-01T19:46:38Z</time>
      </trkpt>
      <trkpt lat="42.56529" lon="1.98342">
        <ele>2150</ele>
        <time>2022-07-01T19:48:13Z</time>
      </trkpt>
      <trkpt lat="42.56524" lon="1.9836">
        <ele>2150</ele>
        <time>2022-07-01T19:48:32Z</time>
      </trkpt>
      <trkpt lat="42.56499" lon="1.98393">
        <ele>2151</ele>
        <time>2022-07-01T19:49:18Z</time>
      </trkpt>
      <trkpt lat="42.56486" lon="1.98417">
        <ele>2150</ele>
        <time>2022-07-01T19:49:48Z</time>
      </trkpt>
      <trkpt lat="42.5648" lon="1.98445">
        <ele>2150</ele>
        <time>2022-07-01T19:50:16Z</time>
      </trkpt>
      <trkpt lat="42.56466" lon="1.9849">
        <ele>2149</ele>
        <time>2022-07-01T19:51:04Z</time>
      </trkpt>
      <trkpt lat="42.56461" lon="1.98498">
        <ele>2148</ele>
        <time>2022-07-01T19:51:15Z</time>
      </trkpt>
      <trkpt lat="42.56448" lon="1.98507">
        <ele>2147</ele>
        <time>2022-07-01T19:51:34Z</time>
      </trkpt>
      <trkpt lat="42.56442" lon="1.98522">
        <ele>2146</ele>
        <time>2022-07-01T19:51:51Z</time>
      </trkpt>
      <trkpt lat="42.56437" lon="1.98545">
        <ele>2144</ele>
        <time>2022-07-01T19:52:14Z</time>
      </trkpt>
      <trkpt lat="42.56425" lon="1.98562">
        <ele>2141</ele>
        <time>2022-07-01T19:52:38Z</time>
      </trkpt>
      <trkpt lat="42.56394" lon="1.98587">
        <ele>2140</ele>
        <time>2022-07-01T19:53:26Z</time>
      </trkpt>
      <trkpt lat="42.5638" lon="1.98593">
        <ele>2140</ele>
        <time>2022-07-01T19:53:45Z</time>
      </trkpt>
      <trkpt lat="42.56373" lon="1.98606">
        <ele>2139</ele>
        <time>2022-07-01T19:54:01Z</time>
      </trkpt>
      <trkpt lat="42.56352" lon="1.98623">
        <ele>2137</ele>
        <time>2022-07-01T19:54:34Z</time>
      </trkpt>
      <trkpt lat="42.5634" lon="1.98641">
        <ele>2134</ele>
        <time>2022-07-01T19:54:58Z</time>
      </trkpt>
      <trkpt lat="42.5634" lon="1.98656">
        <ele>2132</ele>
        <time>2022-07-01T19:55:12Z</time>
      </trkpt>
      <trkpt lat="42.56337" lon="1.98666">
        <ele>2130</ele>
        <time>2022-07-01T19:55:23Z</time>
      </trkpt>
      <trkpt lat="42.56321" lon="1.98693">
        <ele>2127</ele>
        <time>2022-07-01T19:55:57Z</time>
      </trkpt>
      <trkpt lat="42.56304" lon="1.98712">
        <ele>2125</ele>
        <time>2022-07-01T19:56:26Z</time>
      </trkpt>
      <trkpt lat="42.56278" lon="1.98723">
        <ele>2125</ele>
        <time>2022-07-01T19:57:03Z</time>
      </trkpt>
      <trkpt lat="42.56278" lon="1.98726">
        <ele>2125</ele>
        <time>2022-07-01T19:57:06Z</time>
      </trkpt>
      <trkpt lat="42.56265" lon="1.98742">
        <ele>2122</ele>
        <time>2022-07-01T19:57:29Z</time>
      </trkpt>
      <trkpt lat="42.56266" lon="1.98749">
        <ele>2120</ele>
        <time>2022-07-01T19:57:36Z</time>
      </trkpt>
      <trkpt lat="42.56261" lon="1.98768">
        <ele>2118</ele>
        <time>2022-07-01T19:57:56Z</time>
      </trkpt>
      <trkpt lat="42.56251" lon="1.98785">
        <ele>2116</ele>
        <time>2022-07-01T19:58:17Z</time>
      </trkpt>
      <trkpt lat="42.5624" lon="1.98788">
        <ele>2116</ele>
        <time>2022-07-01T19:58:32Z</time>
      </trkpt>
      <trkpt lat="42.56238" lon="1.98792">
        <ele>2115</ele>
        <time>2022-07-01T19:58:37Z</time>
      </trkpt>
      <trkpt lat="42.56209" lon="1.98809">
        <ele>2113</ele>
        <time>2022-07-01T19:59:19Z</time>
      </trkpt>
      <trkpt lat="42.562" lon="1.98818">
        <ele>2112</ele>
        <time>2022-07-01T19:59:34Z</time>
      </trkpt>
      <trkpt lat="42.56189" lon="1.98842">
        <ele>2109</ele>
        <time>2022-07-01T20:00:02Z</time>
      </trkpt>
      <trkpt lat="42.56169" lon="1.98871">
        <ele>2106</ele>
        <time>2022-07-01T20:00:41Z</time>
      </trkpt>
      <trkpt lat="42.56121" lon="1.98925">
        <ele>2105</ele>
        <time>2022-07-01T20:02:04Z</time>
      </trkpt>
      <trkpt lat="42.56112" lon="1.98948">
        <ele>2103</ele>
        <time>2022-07-01T20:02:30Z</time>
      </trkpt>
      <trkpt lat="42.561" lon="1.98964">
        <ele>2100</ele>
        <time>2022-07-01T20:02:52Z</time>
      </trkpt>
      <trkpt lat="42.56087" lon="1.98998">
        <ele>2093</ele>
        <time>2022-07-01T20:03:30Z</time>
      </trkpt>
      <trkpt lat="42.56079" lon="1.99008">
        <ele>2093</ele>
        <time>2022-07-01T20:03:44Z</time>
      </trkpt>
      <trkpt lat="42.56052" lon="1.9903">
        <ele>2097</ele>
        <time>2022-07-01T20:04:26Z</time>
      </trkpt>
      <trkpt lat="42.56043" lon="1.99042">
        <ele>2097</ele>
        <time>2022-07-01T20:04:43Z</time>
      </trkpt>
      <trkpt lat="42.56036" lon="1.99046">
        <ele>2096</ele>
        <time>2022-07-01T20:04:53Z</time>
      </trkpt>
      <trkpt lat="42.56024" lon="1.9909">
        <ele>2089</ele>
        <time>2022-07-01T20:05:40Z</time>
      </trkpt>
      <trkpt lat="42.56023" lon="1.9912">
        <ele>2087</ele>
        <time>2022-07-01T20:06:09Z</time>
      </trkpt>
      <trkpt lat="42.56012" lon="1.99157">
        <ele>2081</ele>
        <time>2022-07-01T20:06:48Z</time>
      </trkpt>
      <trkpt lat="42.5601" lon="1.99193">
        <ele>2079</ele>
        <time>2022-07-01T20:07:24Z</time>
      </trkpt>
      <trkpt lat="42.55995" lon="1.99249">
        <ele>2073</ele>
        <time>2022-07-01T20:08:22Z</time>
      </trkpt>
      <trkpt lat="42.55999" lon="1.9929">
        <ele>2073</ele>
        <time>2022-07-01T20:09:03Z</time>
      </trkpt>
      <trkpt lat="42.55994" lon="1.99294">
        <ele>2071</ele>
        <time>2022-07-01T20:09:11Z</time>
      </trkpt>
      <trkpt lat="42.56005" lon="1.9933">
        <ele>2075</ele>
        <time>2022-07-01T20:09:49Z</time>
      </trkpt>
      <trkpt lat="42.56008" lon="1.99389">
        <ele>2067</ele>
        <time>2022-07-01T20:10:47Z</time>
      </trkpt>
      <trkpt lat="42.56016" lon="1.99408">
        <ele>2067</ele>
        <time>2022-07-01T20:11:09Z</time>
      </trkpt>
      <trkpt lat="42.56026" lon="1.9942">
        <ele>2069</ele>
        <time>2022-07-01T20:11:26Z</time>
      </trkpt>
      <trkpt lat="42.56035" lon="1.99439">
        <ele>2069</ele>
        <time>2022-07-01T20:11:49Z</time>
      </trkpt>
      <trkpt lat="42.5603" lon="1.99454">
        <ele>2065</ele>
        <time>2022-07-01T20:12:05Z</time>
      </trkpt>
      <trkpt lat="42.56033" lon="1.99484">
        <ele>2060</ele>
        <time>2022-07-01T20:12:35Z</time>
      </trkpt>
      <trkpt lat="42.56013" lon="1.99533">
        <ele>2048</ele>
        <time>2022-07-01T20:13:30Z</time>
      </trkpt>
      <trkpt lat="42.56009" lon="1.99556">
        <ele>2044</ele>
        <time>2022-07-01T20:13:53Z</time>
      </trkpt>
      <trkpt lat="42.55999" lon="1.9959">
        <ele>2039</ele>
        <time>2022-07-01T20:14:29Z</time>
      </trkpt>
      <trkpt lat="42.55994" lon="1.99627">
        <ele>2037</ele>
        <time>2022-07-01T20:15:06Z</time>
      </trkpt>
      <trkpt lat="42.55989" lon="1.99642">
        <ele>2036</ele>
        <time>2022-07-01T20:15:22Z</time>
      </trkpt>
      <trkpt lat="42.55974" lon="1.9967">
        <ele>2032</ele>
        <time>2022-07-01T20:15:56Z</time>
      </trkpt>
      <trkpt lat="42.55971" lon="1.99687">
        <ele>2031</ele>
        <time>2022-07-01T20:16:13Z</time>
      </trkpt>
      <trkpt lat="42.55981" lon="1.99717">
        <ele>2030</ele>
        <time>2022-07-01T20:16:46Z</time>
      </trkpt>
      <trkpt lat="42.55985" lon="1.99754">
        <ele>2027</ele>
        <time>2022-07-01T20:17:22Z</time>
      </trkpt>
      <trkpt lat="42.55989" lon="1.9976">
        <ele>2027</ele>
        <time>2022-07-01T20:17:30Z</time>
      </trkpt>
      <trkpt lat="42.55989" lon="1.99768">
        <ele>2026</ele>
        <time>2022-07-01T20:17:38Z</time>
      </trkpt>
      <trkpt lat="42.55983" lon="1.9978">
        <ele>2025</ele>
        <time>2022-07-01T20:17:52Z</time>
      </trkpt>
      <trkpt lat="42.5598" lon="1.9982">
        <ele>2021</ele>
        <time>2022-07-01T20:18:32Z</time>
      </trkpt>
      <trkpt lat="42.55975" lon="1.99842">
        <ele>2020</ele>
        <time>2022-07-01T20:18:55Z</time>
      </trkpt>
      <trkpt lat="42.55978" lon="1.99852">
        <ele>2019</ele>
        <time>2022-07-01T20:19:05Z</time>
      </trkpt>
      <trkpt lat="42.55971" lon="1.99871">
        <ele>2018</ele>
        <time>2022-07-01T20:19:26Z</time>
      </trkpt>
      <trkpt lat="42.56021" lon="2.00181">
        <ele>2007</ele>
        <time>2022-07-01T20:24:38Z</time>
      </trkpt>
      <trkpt lat="42.56043" lon="2.00299">
        <ele>2015</ele>
        <time>2022-07-01T20:26:38Z</time>
      </trkpt>
      <trkpt lat="42.56044" lon="2.00325">
        <ele>2017</ele>
        <time>2022-07-01T20:27:03Z</time>
      </trkpt>
      <trkpt lat="42.56041" lon="2.00331">
        <ele>2017</ele>
        <time>2022-07-01T20:27:10Z</time>
      </trkpt>
      <trkpt lat="42.56016" lon="2.0034">
        <ele>2016</ele>
        <time>2022-07-01T20:27:45Z</time>
      </trkpt>
      <trkpt lat="42.56005" lon="2.00372">
        <ele>2016</ele>
        <time>2022-07-01T20:28:20Z</time>
      </trkpt>
    </trkseg>
  </trk>
</gpx>